<?xml version="1.0" encoding="UTF-8" standalone="no" ?>
<gpx xmlns="http://www.topografix.com/GPX/1/1" xmlns:xsi="http://www.w3.org/2001/XMLSchema-instance" xsi:schemaLocation="http://www.topografix.com/GPX/1/1 http://www.topografix.com/GPX/1/1/gpx.xsd" version="1.1" creator="VisuGPX - https://www.visugpx.com">
  <metadata>
    <name>Maroc2011 - Tanger à Meknes</name>
    <desc><![CDATA[Maroc 2011, le tracés de Tanger à Meknes]]></desc>
  </metadata>
  <trk>
    <name><![CDATA[tanger meknes]]></name>
    <trkseg>
      <trkpt lat="35.77208" lon="-5.78299">
        <ele>-1.2</ele>
        <time>2011-04-18T22:05:24Z</time>
      </trkpt>
      <trkpt lat="35.7726" lon="-5.78201">
        <ele>17.001</ele>
        <time>2011-04-19T07:52:23Z</time>
      </trkpt>
      <trkpt lat="35.77155" lon="-5.78337">
        <ele>1.72</ele>
        <time>2011-04-19T09:10:29Z</time>
      </trkpt>
      <trkpt lat="35.77182" lon="-5.78265">
        <ele>1.715</ele>
        <time>2011-04-19T09:15:46Z</time>
      </trkpt>
      <trkpt lat="35.77193" lon="-5.78341">
        <ele>8.033</ele>
        <time>2011-04-19T09:16:17Z</time>
      </trkpt>
      <trkpt lat="35.77208" lon="-5.78378">
        <ele>9.993</ele>
        <time>2011-04-19T09:16:21Z</time>
      </trkpt>
      <trkpt lat="35.77245" lon="-5.78623">
        <ele>12.258</ele>
        <time>2011-04-19T09:16:44Z</time>
      </trkpt>
      <trkpt lat="35.77254" lon="-5.79154">
        <ele>10.623</ele>
        <time>2011-04-19T09:17:35Z</time>
      </trkpt>
      <trkpt lat="35.77185" lon="-5.79385">
        <ele>11.595</ele>
        <time>2011-04-19T09:17:58Z</time>
      </trkpt>
      <trkpt lat="35.77184" lon="-5.79749">
        <ele>11.922</ele>
        <time>2011-04-19T09:18:28Z</time>
      </trkpt>
      <trkpt lat="35.77185" lon="-5.79795">
        <ele>9.627</ele>
        <time>2011-04-19T09:18:38Z</time>
      </trkpt>
      <trkpt lat="35.77263" lon="-5.79777">
        <ele>8.471</ele>
        <time>2011-04-19T09:23:18Z</time>
      </trkpt>
      <trkpt lat="35.77185" lon="-5.7979">
        <ele>8.126</ele>
        <time>2011-04-19T09:23:27Z</time>
      </trkpt>
      <trkpt lat="35.77187" lon="-5.79931">
        <ele>7.573</ele>
        <time>2011-04-19T09:24:02Z</time>
      </trkpt>
      <trkpt lat="35.77052" lon="-5.80163">
        <ele>11.181</ele>
        <time>2011-04-19T09:24:31Z</time>
      </trkpt>
      <trkpt lat="35.76988" lon="-5.80385">
        <ele>8.734</ele>
        <time>2011-04-19T09:25:13Z</time>
      </trkpt>
      <trkpt lat="35.76933" lon="-5.80243">
        <ele>10.409</ele>
        <time>2011-04-19T09:25:29Z</time>
      </trkpt>
      <trkpt lat="35.76638" lon="-5.79939">
        <ele>23.548</ele>
        <time>2011-04-19T09:26:00Z</time>
      </trkpt>
      <trkpt lat="35.76545" lon="-5.79846">
        <ele>24.374</ele>
        <time>2011-04-19T09:26:09Z</time>
      </trkpt>
      <trkpt lat="35.76276" lon="-5.79593">
        <ele>13.252</ele>
        <time>2011-04-19T09:26:51Z</time>
      </trkpt>
      <trkpt lat="35.74761" lon="-5.78581">
        <ele>10.746</ele>
        <time>2011-04-19T09:30:05Z</time>
      </trkpt>
      <trkpt lat="35.7451" lon="-5.78212">
        <ele>14.028</ele>
        <time>2011-04-19T09:30:35Z</time>
      </trkpt>
      <trkpt lat="35.74329" lon="-5.7779">
        <ele>16.585</ele>
        <time>2011-04-19T09:31:08Z</time>
      </trkpt>
      <trkpt lat="35.73986" lon="-5.77207">
        <ele>19.684</ele>
        <time>2011-04-19T09:31:50Z</time>
      </trkpt>
      <trkpt lat="35.73756" lon="-5.76791">
        <ele>18.498</ele>
        <time>2011-04-19T09:32:17Z</time>
      </trkpt>
      <trkpt lat="35.73558" lon="-5.76615">
        <ele>15.904</ele>
        <time>2011-04-19T09:32:34Z</time>
      </trkpt>
      <trkpt lat="35.7322" lon="-5.76493">
        <ele>19.039</ele>
        <time>2011-04-19T09:33:01Z</time>
      </trkpt>
      <trkpt lat="35.73135" lon="-5.76385">
        <ele>19.742</ele>
        <time>2011-04-19T09:33:09Z</time>
      </trkpt>
      <trkpt lat="35.72991" lon="-5.75888">
        <ele>24.326</ele>
        <time>2011-04-19T09:33:35Z</time>
      </trkpt>
      <trkpt lat="35.72813" lon="-5.75607">
        <ele>27.119</ele>
        <time>2011-04-19T09:34:01Z</time>
      </trkpt>
      <trkpt lat="35.72707" lon="-5.75378">
        <ele>21.769</ele>
        <time>2011-04-19T09:34:16Z</time>
      </trkpt>
      <trkpt lat="35.72675" lon="-5.74347">
        <ele>36.148</ele>
        <time>2011-04-19T09:35:07Z</time>
      </trkpt>
      <trkpt lat="35.72237" lon="-5.73706">
        <ele>43.07</ele>
        <time>2011-04-19T09:35:55Z</time>
      </trkpt>
      <trkpt lat="35.71546" lon="-5.73385">
        <ele>51.78</ele>
        <time>2011-04-19T09:36:35Z</time>
      </trkpt>
      <trkpt lat="35.70851" lon="-5.73294">
        <ele>73.907</ele>
        <time>2011-04-19T09:37:18Z</time>
      </trkpt>
      <trkpt lat="35.70657" lon="-5.73258">
        <ele>71.798</ele>
        <time>2011-04-19T09:37:28Z</time>
      </trkpt>
      <trkpt lat="35.70207" lon="-5.72922">
        <ele>87.195</ele>
        <time>2011-04-19T09:37:53Z</time>
      </trkpt>
      <trkpt lat="35.70054" lon="-5.72938">
        <ele>90.704</ele>
        <time>2011-04-19T09:37:59Z</time>
      </trkpt>
      <trkpt lat="35.69638" lon="-5.72775">
        <ele>100.306</ele>
        <time>2011-04-19T09:38:18Z</time>
      </trkpt>
      <trkpt lat="35.69588" lon="-5.72682">
        <ele>101.695</ele>
        <time>2011-04-19T09:38:21Z</time>
      </trkpt>
      <trkpt lat="35.69476" lon="-5.72648">
        <ele>105.972</ele>
        <time>2011-04-19T09:38:26Z</time>
      </trkpt>
      <trkpt lat="35.69029" lon="-5.72531">
        <ele>90.716</ele>
        <time>2011-04-19T09:38:48Z</time>
      </trkpt>
      <trkpt lat="35.69022" lon="-5.72453">
        <ele>90.709</ele>
        <time>2011-04-19T09:38:49Z</time>
      </trkpt>
      <trkpt lat="35.68718" lon="-5.72358">
        <ele>79.783</ele>
        <time>2011-04-19T09:39:03Z</time>
      </trkpt>
      <trkpt lat="35.68277" lon="-5.71778">
        <ele>69.156</ele>
        <time>2011-04-19T09:39:33Z</time>
      </trkpt>
      <trkpt lat="35.6821" lon="-5.71741">
        <ele>73.273</ele>
        <time>2011-04-19T09:39:37Z</time>
      </trkpt>
      <trkpt lat="35.67721" lon="-5.70469">
        <ele>59.295</ele>
        <time>2011-04-19T09:40:39Z</time>
      </trkpt>
      <trkpt lat="35.67401" lon="-5.70036">
        <ele>67.792</ele>
        <time>2011-04-19T09:41:08Z</time>
      </trkpt>
      <trkpt lat="35.66674" lon="-5.69687">
        <ele>88.364</ele>
        <time>2011-04-19T09:41:43Z</time>
      </trkpt>
      <trkpt lat="35.66177" lon="-5.69707">
        <ele>112.308</ele>
        <time>2011-04-19T09:42:05Z</time>
      </trkpt>
      <trkpt lat="35.66158" lon="-5.69698">
        <ele>112.303</ele>
        <time>2011-04-19T09:42:06Z</time>
      </trkpt>
      <trkpt lat="35.65929" lon="-5.69533">
        <ele>107.86</ele>
        <time>2011-04-19T09:42:19Z</time>
      </trkpt>
      <trkpt lat="35.6551" lon="-5.68911">
        <ele>71.852</ele>
        <time>2011-04-19T09:43:04Z</time>
      </trkpt>
      <trkpt lat="35.65426" lon="-5.68846">
        <ele>70.432</ele>
        <time>2011-04-19T09:43:10Z</time>
      </trkpt>
      <trkpt lat="35.64401" lon="-5.68738">
        <ele>62.079</ele>
        <time>2011-04-19T09:43:55Z</time>
      </trkpt>
      <trkpt lat="35.64095" lon="-5.68616">
        <ele>74.76</ele>
        <time>2011-04-19T09:44:10Z</time>
      </trkpt>
      <trkpt lat="35.63999" lon="-5.68452">
        <ele>83.81</ele>
        <time>2011-04-19T09:44:17Z</time>
      </trkpt>
      <trkpt lat="35.63979" lon="-5.6844">
        <ele>83.806</ele>
        <time>2011-04-19T09:44:18Z</time>
      </trkpt>
      <trkpt lat="35.63854" lon="-5.68432">
        <ele>91.715</ele>
        <time>2011-04-19T09:44:23Z</time>
      </trkpt>
      <trkpt lat="35.6382" lon="-5.68409">
        <ele>92.395</ele>
        <time>2011-04-19T09:44:25Z</time>
      </trkpt>
      <trkpt lat="35.63628" lon="-5.68295">
        <ele>91.336</ele>
        <time>2011-04-19T09:44:42Z</time>
      </trkpt>
      <trkpt lat="35.63285" lon="-5.67984">
        <ele>74.172</ele>
        <time>2011-04-19T09:45:01Z</time>
      </trkpt>
      <trkpt lat="35.63044" lon="-5.67499">
        <ele>67.968</ele>
        <time>2011-04-19T09:45:21Z</time>
      </trkpt>
      <trkpt lat="35.61254" lon="-5.6639">
        <ele>70.269</ele>
        <time>2011-04-19T09:46:46Z</time>
      </trkpt>
      <trkpt lat="35.6103" lon="-5.6623">
        <ele>69.086</ele>
        <time>2011-04-19T09:46:57Z</time>
      </trkpt>
      <trkpt lat="35.59907" lon="-5.65149">
        <ele>79.599</ele>
        <time>2011-04-19T09:48:08Z</time>
      </trkpt>
      <trkpt lat="35.58908" lon="-5.64373">
        <ele>87.826</ele>
        <time>2011-04-19T09:48:59Z</time>
      </trkpt>
      <trkpt lat="35.5889" lon="-5.64359">
        <ele>87.826</ele>
        <time>2011-04-19T09:49:00Z</time>
      </trkpt>
      <trkpt lat="35.58423" lon="-5.64022">
        <ele>81</ele>
        <time>2011-04-19T09:49:43Z</time>
      </trkpt>
      <trkpt lat="35.58211" lon="-5.63758">
        <ele>94.725</ele>
        <time>2011-04-19T09:50:00Z</time>
      </trkpt>
      <trkpt lat="35.5755" lon="-5.62892">
        <ele>98.573</ele>
        <time>2011-04-19T09:50:44Z</time>
      </trkpt>
      <trkpt lat="35.57026" lon="-5.62445">
        <ele>110.419</ele>
        <time>2011-04-19T09:51:13Z</time>
      </trkpt>
      <trkpt lat="35.56963" lon="-5.62328">
        <ele>112.669</ele>
        <time>2011-04-19T09:51:19Z</time>
      </trkpt>
      <trkpt lat="35.5683" lon="-5.61706">
        <ele>103.281</ele>
        <time>2011-04-19T09:51:48Z</time>
      </trkpt>
      <trkpt lat="35.56774" lon="-5.60915">
        <ele>126.274</ele>
        <time>2011-04-19T09:52:22Z</time>
      </trkpt>
      <trkpt lat="35.56702" lon="-5.60765">
        <ele>130.617</ele>
        <time>2011-04-19T09:52:28Z</time>
      </trkpt>
      <trkpt lat="35.56427" lon="-5.6051">
        <ele>146.893</ele>
        <time>2011-04-19T09:52:44Z</time>
      </trkpt>
      <trkpt lat="35.5632" lon="-5.60047">
        <ele>165.733</ele>
        <time>2011-04-19T09:53:05Z</time>
      </trkpt>
      <trkpt lat="35.56309" lon="-5.59977">
        <ele>167.494</ele>
        <time>2011-04-19T09:53:08Z</time>
      </trkpt>
      <trkpt lat="35.56438" lon="-5.59568">
        <ele>194.705</ele>
        <time>2011-04-19T09:53:28Z</time>
      </trkpt>
      <trkpt lat="35.56489" lon="-5.59334">
        <ele>198.809</ele>
        <time>2011-04-19T09:53:38Z</time>
      </trkpt>
      <trkpt lat="35.56629" lon="-5.59045">
        <ele>217.197</ele>
        <time>2011-04-19T09:53:52Z</time>
      </trkpt>
      <trkpt lat="35.56559" lon="-5.58914">
        <ele>226.959</ele>
        <time>2011-04-19T09:53:59Z</time>
      </trkpt>
      <trkpt lat="35.56576" lon="-5.58608">
        <ele>229.77</ele>
        <time>2011-04-19T09:54:15Z</time>
      </trkpt>
      <trkpt lat="35.56481" lon="-5.58467">
        <ele>239.262</ele>
        <time>2011-04-19T09:54:24Z</time>
      </trkpt>
      <trkpt lat="35.5634" lon="-5.585">
        <ele>251.719</ele>
        <time>2011-04-19T09:54:33Z</time>
      </trkpt>
      <trkpt lat="35.55957" lon="-5.58329">
        <ele>268.056</ele>
        <time>2011-04-19T09:54:59Z</time>
      </trkpt>
      <trkpt lat="35.5612" lon="-5.5813">
        <ele>289.46</ele>
        <time>2011-04-19T09:55:17Z</time>
      </trkpt>
      <trkpt lat="35.56152" lon="-5.57977">
        <ele>301.731</ele>
        <time>2011-04-19T09:55:26Z</time>
      </trkpt>
      <trkpt lat="35.56033" lon="-5.57776">
        <ele>312.606</ele>
        <time>2011-04-19T09:55:39Z</time>
      </trkpt>
      <trkpt lat="35.56051" lon="-5.57625">
        <ele>322.791</ele>
        <time>2011-04-19T09:55:47Z</time>
      </trkpt>
      <trkpt lat="35.56026" lon="-5.57327">
        <ele>331.888</ele>
        <time>2011-04-19T09:56:06Z</time>
      </trkpt>
      <trkpt lat="35.56039" lon="-5.57025">
        <ele>315.529</ele>
        <time>2011-04-19T09:56:22Z</time>
      </trkpt>
      <trkpt lat="35.55816" lon="-5.5688">
        <ele>302.333</ele>
        <time>2011-04-19T09:56:36Z</time>
      </trkpt>
      <trkpt lat="35.55442" lon="-5.56885">
        <ele>279.749</ele>
        <time>2011-04-19T09:56:59Z</time>
      </trkpt>
      <trkpt lat="35.55351" lon="-5.56812">
        <ele>278.094</ele>
        <time>2011-04-19T09:57:06Z</time>
      </trkpt>
      <trkpt lat="35.55262" lon="-5.56748">
        <ele>266.888</ele>
        <time>2011-04-19T09:57:13Z</time>
      </trkpt>
      <trkpt lat="35.55055" lon="-5.56784">
        <ele>259.067</ele>
        <time>2011-04-19T09:57:25Z</time>
      </trkpt>
      <trkpt lat="35.54779" lon="-5.56596">
        <ele>245.127</ele>
        <time>2011-04-19T09:57:41Z</time>
      </trkpt>
      <trkpt lat="35.54718" lon="-5.56488">
        <ele>247.684</ele>
        <time>2011-04-19T09:57:47Z</time>
      </trkpt>
      <trkpt lat="35.54589" lon="-5.55911">
        <ele>219.603</ele>
        <time>2011-04-19T09:58:11Z</time>
      </trkpt>
      <trkpt lat="35.54755" lon="-5.55521">
        <ele>194.663</ele>
        <time>2011-04-19T09:58:36Z</time>
      </trkpt>
      <trkpt lat="35.54881" lon="-5.55354">
        <ele>183.919</ele>
        <time>2011-04-19T09:58:51Z</time>
      </trkpt>
      <trkpt lat="35.54948" lon="-5.54737">
        <ele>155.029</ele>
        <time>2011-04-19T09:59:18Z</time>
      </trkpt>
      <trkpt lat="35.55042" lon="-5.54456">
        <ele>140.32</ele>
        <time>2011-04-19T09:59:30Z</time>
      </trkpt>
      <trkpt lat="35.54846" lon="-5.54061">
        <ele>118.848</ele>
        <time>2011-04-19T09:59:55Z</time>
      </trkpt>
      <trkpt lat="35.54909" lon="-5.53665">
        <ele>104.299</ele>
        <time>2011-04-19T10:00:12Z</time>
      </trkpt>
      <trkpt lat="35.54818" lon="-5.5312">
        <ele>93.667</ele>
        <time>2011-04-19T10:00:39Z</time>
      </trkpt>
      <trkpt lat="35.54881" lon="-5.52966">
        <ele>89.449</ele>
        <time>2011-04-19T10:00:48Z</time>
      </trkpt>
      <trkpt lat="35.54852" lon="-5.52791">
        <ele>92.153</ele>
        <time>2011-04-19T10:00:53Z</time>
      </trkpt>
      <trkpt lat="35.54856" lon="-5.52672">
        <ele>88.99</ele>
        <time>2011-04-19T10:00:58Z</time>
      </trkpt>
      <trkpt lat="35.54922" lon="-5.52464">
        <ele>86.171</ele>
        <time>2011-04-19T10:01:07Z</time>
      </trkpt>
      <trkpt lat="35.54971" lon="-5.5244">
        <ele>82.195</ele>
        <time>2011-04-19T10:01:08Z</time>
      </trkpt>
      <trkpt lat="35.55035" lon="-5.51979">
        <ele>73.141</ele>
        <time>2011-04-19T10:01:34Z</time>
      </trkpt>
      <trkpt lat="35.55327" lon="-5.51099">
        <ele>67.015</ele>
        <time>2011-04-19T10:02:10Z</time>
      </trkpt>
      <trkpt lat="35.55348" lon="-5.50906">
        <ele>62.647</ele>
        <time>2011-04-19T10:02:17Z</time>
      </trkpt>
      <trkpt lat="35.55503" lon="-5.50553">
        <ele>57.66</ele>
        <time>2011-04-19T10:02:32Z</time>
      </trkpt>
      <trkpt lat="35.56099" lon="-5.49798">
        <ele>47.437</ele>
        <time>2011-04-19T10:03:13Z</time>
      </trkpt>
      <trkpt lat="35.56318" lon="-5.48953">
        <ele>59.125</ele>
        <time>2011-04-19T10:03:45Z</time>
      </trkpt>
      <trkpt lat="35.5628" lon="-5.48483">
        <ele>61.495</ele>
        <time>2011-04-19T10:04:03Z</time>
      </trkpt>
      <trkpt lat="35.56218" lon="-5.48352">
        <ele>60.122</ele>
        <time>2011-04-19T10:04:08Z</time>
      </trkpt>
      <trkpt lat="35.56078" lon="-5.47867">
        <ele>40.584</ele>
        <time>2011-04-19T10:04:27Z</time>
      </trkpt>
      <trkpt lat="35.56094" lon="-5.47217">
        <ele>23.238</ele>
        <time>2011-04-19T10:04:51Z</time>
      </trkpt>
      <trkpt lat="35.55753" lon="-5.44981">
        <ele>24.196</ele>
        <time>2011-04-19T10:06:45Z</time>
      </trkpt>
      <trkpt lat="35.55787" lon="-5.44834">
        <ele>25.138</ele>
        <time>2011-04-19T10:06:53Z</time>
      </trkpt>
      <trkpt lat="35.55962" lon="-5.4455">
        <ele>19.425</ele>
        <time>2011-04-19T10:07:14Z</time>
      </trkpt>
      <trkpt lat="35.55972" lon="-5.43611">
        <ele>13.112</ele>
        <time>2011-04-19T10:07:53Z</time>
      </trkpt>
      <trkpt lat="35.56263" lon="-5.43065">
        <ele>5.409</ele>
        <time>2011-04-19T10:08:27Z</time>
      </trkpt>
      <trkpt lat="35.56413" lon="-5.42455">
        <ele>5.475</ele>
        <time>2011-04-19T10:09:04Z</time>
      </trkpt>
      <trkpt lat="35.56497" lon="-5.42171">
        <ele>-0.082</ele>
        <time>2011-04-19T10:09:27Z</time>
      </trkpt>
      <trkpt lat="35.56524" lon="-5.41421">
        <ele>3.184</ele>
        <time>2011-04-19T10:10:16Z</time>
      </trkpt>
      <trkpt lat="35.56539" lon="-5.41293">
        <ele>-1.825</ele>
        <time>2011-04-19T10:10:27Z</time>
      </trkpt>
      <trkpt lat="35.56176" lon="-5.41232">
        <ele>-1.948</ele>
        <time>2011-04-19T10:11:17Z</time>
      </trkpt>
      <trkpt lat="35.55594" lon="-5.41345">
        <ele>4.427</ele>
        <time>2011-04-19T10:12:13Z</time>
      </trkpt>
      <trkpt lat="35.55253" lon="-5.41905">
        <ele>14.936</ele>
        <time>2011-04-19T10:12:57Z</time>
      </trkpt>
      <trkpt lat="35.54685" lon="-5.42435">
        <ele>25.626</ele>
        <time>2011-04-19T10:14:01Z</time>
      </trkpt>
      <trkpt lat="35.5452" lon="-5.42486">
        <ele>31.005</ele>
        <time>2011-04-19T10:14:13Z</time>
      </trkpt>
      <trkpt lat="35.54394" lon="-5.4247">
        <ele>32.569</ele>
        <time>2011-04-19T10:14:22Z</time>
      </trkpt>
      <trkpt lat="35.53875" lon="-5.42393">
        <ele>35.602</ele>
        <time>2011-04-19T10:15:07Z</time>
      </trkpt>
      <trkpt lat="35.53533" lon="-5.42498">
        <ele>37.498</ele>
        <time>2011-04-19T10:15:39Z</time>
      </trkpt>
      <trkpt lat="35.53107" lon="-5.4295">
        <ele>48.863</ele>
        <time>2011-04-19T10:16:16Z</time>
      </trkpt>
      <trkpt lat="35.52523" lon="-5.43674">
        <ele>54.809</ele>
        <time>2011-04-19T10:17:12Z</time>
      </trkpt>
      <trkpt lat="35.52171" lon="-5.43619">
        <ele>60.208</ele>
        <time>2011-04-19T10:17:41Z</time>
      </trkpt>
      <trkpt lat="35.51984" lon="-5.43571">
        <ele>62.538</ele>
        <time>2011-04-19T10:17:58Z</time>
      </trkpt>
      <trkpt lat="35.51621" lon="-5.43749">
        <ele>68.118</ele>
        <time>2011-04-19T10:18:30Z</time>
      </trkpt>
      <trkpt lat="35.51282" lon="-5.4381">
        <ele>69.799</ele>
        <time>2011-04-19T10:18:58Z</time>
      </trkpt>
      <trkpt lat="35.51008" lon="-5.44014">
        <ele>74.634</ele>
        <time>2011-04-19T10:19:26Z</time>
      </trkpt>
      <trkpt lat="35.50892" lon="-5.4402">
        <ele>76.385</ele>
        <time>2011-04-19T10:19:35Z</time>
      </trkpt>
      <trkpt lat="35.50622" lon="-5.43869">
        <ele>83.427</ele>
        <time>2011-04-19T10:19:50Z</time>
      </trkpt>
      <trkpt lat="35.50432" lon="-5.43598">
        <ele>88.344</ele>
        <time>2011-04-19T10:20:12Z</time>
      </trkpt>
      <trkpt lat="35.49976" lon="-5.43504">
        <ele>97.504</ele>
        <time>2011-04-19T10:20:45Z</time>
      </trkpt>
      <trkpt lat="35.4982" lon="-5.43528">
        <ele>97.388</ele>
        <time>2011-04-19T10:21:00Z</time>
      </trkpt>
      <trkpt lat="35.49698" lon="-5.43318">
        <ele>103.888</ele>
        <time>2011-04-19T10:21:19Z</time>
      </trkpt>
      <trkpt lat="35.49617" lon="-5.42974">
        <ele>108.704</ele>
        <time>2011-04-19T10:21:37Z</time>
      </trkpt>
      <trkpt lat="35.49502" lon="-5.42831">
        <ele>112.615</ele>
        <time>2011-04-19T10:21:47Z</time>
      </trkpt>
      <trkpt lat="35.49366" lon="-5.42765">
        <ele>116.477</ele>
        <time>2011-04-19T10:21:56Z</time>
      </trkpt>
      <trkpt lat="35.49223" lon="-5.42456">
        <ele>124.586</ele>
        <time>2011-04-19T10:22:15Z</time>
      </trkpt>
      <trkpt lat="35.49092" lon="-5.42242">
        <ele>125.224</ele>
        <time>2011-04-19T10:22:30Z</time>
      </trkpt>
      <trkpt lat="35.48739" lon="-5.42067">
        <ele>136.052</ele>
        <time>2011-04-19T10:22:54Z</time>
      </trkpt>
      <trkpt lat="35.48483" lon="-5.41457">
        <ele>150.114</ele>
        <time>2011-04-19T10:23:27Z</time>
      </trkpt>
      <trkpt lat="35.48269" lon="-5.41143">
        <ele>153.211</ele>
        <time>2011-04-19T10:23:50Z</time>
      </trkpt>
      <trkpt lat="35.48031" lon="-5.40899">
        <ele>159.498</ele>
        <time>2011-04-19T10:24:14Z</time>
      </trkpt>
      <trkpt lat="35.47626" lon="-5.40705">
        <ele>171.777</ele>
        <time>2011-04-19T10:24:44Z</time>
      </trkpt>
      <trkpt lat="35.47434" lon="-5.40616">
        <ele>175.976</ele>
        <time>2011-04-19T10:24:58Z</time>
      </trkpt>
      <trkpt lat="35.47136" lon="-5.40289">
        <ele>182.098</ele>
        <time>2011-04-19T10:25:38Z</time>
      </trkpt>
      <trkpt lat="35.4677" lon="-5.40349">
        <ele>182.536</ele>
        <time>2011-04-19T10:26:15Z</time>
      </trkpt>
      <trkpt lat="35.46629" lon="-5.40281">
        <ele>172.428</ele>
        <time>2011-04-19T10:26:28Z</time>
      </trkpt>
      <trkpt lat="35.46433" lon="-5.40421">
        <ele>176.318</ele>
        <time>2011-04-19T10:26:45Z</time>
      </trkpt>
      <trkpt lat="35.45937" lon="-5.40528">
        <ele>202.835</ele>
        <time>2011-04-19T10:27:21Z</time>
      </trkpt>
      <trkpt lat="35.45883" lon="-5.40495">
        <ele>207.162</ele>
        <time>2011-04-19T10:27:29Z</time>
      </trkpt>
      <trkpt lat="35.4588" lon="-5.40419">
        <ele>213.538</ele>
        <time>2011-04-19T10:27:35Z</time>
      </trkpt>
      <trkpt lat="35.45893" lon="-5.40186">
        <ele>226.097</ele>
        <time>2011-04-19T10:27:52Z</time>
      </trkpt>
      <trkpt lat="35.45844" lon="-5.40059">
        <ele>233.738</ele>
        <time>2011-04-19T10:28:01Z</time>
      </trkpt>
      <trkpt lat="35.45561" lon="-5.39959">
        <ele>224.144</ele>
        <time>2011-04-19T10:28:24Z</time>
      </trkpt>
      <trkpt lat="35.45331" lon="-5.39781">
        <ele>214.854</ele>
        <time>2011-04-19T10:28:44Z</time>
      </trkpt>
      <trkpt lat="35.45247" lon="-5.39563">
        <ele>202.611</ele>
        <time>2011-04-19T10:29:02Z</time>
      </trkpt>
      <trkpt lat="35.44972" lon="-5.39664">
        <ele>216.748</ele>
        <time>2011-04-19T10:29:24Z</time>
      </trkpt>
      <trkpt lat="35.44767" lon="-5.39403">
        <ele>235.751</ele>
        <time>2011-04-19T10:29:53Z</time>
      </trkpt>
      <trkpt lat="35.44629" lon="-5.39313">
        <ele>243.87</ele>
        <time>2011-04-19T10:30:06Z</time>
      </trkpt>
      <trkpt lat="35.44198" lon="-5.39237">
        <ele>230.901</ele>
        <time>2011-04-19T10:30:37Z</time>
      </trkpt>
      <trkpt lat="35.44111" lon="-5.39162">
        <ele>231.28</ele>
        <time>2011-04-19T10:30:45Z</time>
      </trkpt>
      <trkpt lat="35.43996" lon="-5.39087">
        <ele>224.252</ele>
        <time>2011-04-19T10:30:55Z</time>
      </trkpt>
      <trkpt lat="35.43721" lon="-5.39182">
        <ele>209.326</ele>
        <time>2011-04-19T10:31:15Z</time>
      </trkpt>
      <trkpt lat="35.43579" lon="-5.39084">
        <ele>197.422</ele>
        <time>2011-04-19T10:31:32Z</time>
      </trkpt>
      <trkpt lat="35.43259" lon="-5.39131">
        <ele>202.6</ele>
        <time>2011-04-19T10:31:57Z</time>
      </trkpt>
      <trkpt lat="35.429" lon="-5.39306">
        <ele>200.793</ele>
        <time>2011-04-19T10:32:19Z</time>
      </trkpt>
      <trkpt lat="35.42592" lon="-5.39285">
        <ele>219.941</ele>
        <time>2011-04-19T10:32:36Z</time>
      </trkpt>
      <trkpt lat="35.42232" lon="-5.39188">
        <ele>224.017</ele>
        <time>2011-04-19T10:32:53Z</time>
      </trkpt>
      <trkpt lat="35.4204" lon="-5.39076">
        <ele>221.774</ele>
        <time>2011-04-19T10:33:06Z</time>
      </trkpt>
      <trkpt lat="35.41678" lon="-5.38614">
        <ele>223.395</ele>
        <time>2011-04-19T10:33:37Z</time>
      </trkpt>
      <trkpt lat="35.41317" lon="-5.38393">
        <ele>234.526</ele>
        <time>2011-04-19T10:34:00Z</time>
      </trkpt>
      <trkpt lat="35.41046" lon="-5.38132">
        <ele>249.981</ele>
        <time>2011-04-19T10:34:20Z</time>
      </trkpt>
      <trkpt lat="35.40915" lon="-5.38075">
        <ele>251.643</ele>
        <time>2011-04-19T10:34:29Z</time>
      </trkpt>
      <trkpt lat="35.40838" lon="-5.37758">
        <ele>266.562</ele>
        <time>2011-04-19T10:34:51Z</time>
      </trkpt>
      <trkpt lat="35.40768" lon="-5.3767">
        <ele>273.251</ele>
        <time>2011-04-19T10:34:57Z</time>
      </trkpt>
      <trkpt lat="35.40756" lon="-5.37659">
        <ele>273.253</ele>
        <time>2011-04-19T10:34:58Z</time>
      </trkpt>
      <trkpt lat="35.40108" lon="-5.3744">
        <ele>315.927</ele>
        <time>2011-04-19T10:35:44Z</time>
      </trkpt>
      <trkpt lat="35.39804" lon="-5.37081">
        <ele>346.433</ele>
        <time>2011-04-19T10:36:17Z</time>
      </trkpt>
      <trkpt lat="35.39153" lon="-5.37272">
        <ele>395.29</ele>
        <time>2011-04-19T10:37:00Z</time>
      </trkpt>
      <trkpt lat="35.38966" lon="-5.37308">
        <ele>400.763</ele>
        <time>2011-04-19T10:37:23Z</time>
      </trkpt>
      <trkpt lat="35.38563" lon="-5.37475">
        <ele>422.819</ele>
        <time>2011-04-19T10:38:29Z</time>
      </trkpt>
      <trkpt lat="35.38268" lon="-5.3736">
        <ele>440.871</ele>
        <time>2011-04-19T10:38:53Z</time>
      </trkpt>
      <trkpt lat="35.38082" lon="-5.37244">
        <ele>440.121</ele>
        <time>2011-04-19T10:45:32Z</time>
      </trkpt>
      <trkpt lat="35.37851" lon="-5.37393">
        <ele>457.481</ele>
        <time>2011-04-19T10:45:52Z</time>
      </trkpt>
      <trkpt lat="35.37683" lon="-5.3745">
        <ele>463.754</ele>
        <time>2011-04-19T10:46:07Z</time>
      </trkpt>
      <trkpt lat="35.37378" lon="-5.37258">
        <ele>468.98</ele>
        <time>2011-04-19T10:46:28Z</time>
      </trkpt>
      <trkpt lat="35.37134" lon="-5.37331">
        <ele>464.287</ele>
        <time>2011-04-19T10:46:46Z</time>
      </trkpt>
      <trkpt lat="35.37136" lon="-5.37424">
        <ele>467.512</ele>
        <time>2011-04-19T10:46:49Z</time>
      </trkpt>
      <trkpt lat="35.37101" lon="-5.37438">
        <ele>464.525</ele>
        <time>2011-04-19T10:46:53Z</time>
      </trkpt>
      <trkpt lat="35.36695" lon="-5.37266">
        <ele>485.335</ele>
        <time>2011-04-19T10:47:32Z</time>
      </trkpt>
      <trkpt lat="35.36465" lon="-5.37051">
        <ele>496.456</ele>
        <time>2011-04-19T10:47:53Z</time>
      </trkpt>
      <trkpt lat="35.36168" lon="-5.3716">
        <ele>510.361</ele>
        <time>2011-04-19T10:48:13Z</time>
      </trkpt>
      <trkpt lat="35.35917" lon="-5.37286">
        <ele>515.18</ele>
        <time>2011-04-19T10:48:30Z</time>
      </trkpt>
      <trkpt lat="35.35156" lon="-5.36936">
        <ele>554.577</ele>
        <time>2011-04-19T10:49:22Z</time>
      </trkpt>
      <trkpt lat="35.35096" lon="-5.36896">
        <ele>557.611</ele>
        <time>2011-04-19T10:49:26Z</time>
      </trkpt>
      <trkpt lat="35.35025" lon="-5.36692">
        <ele>570.809</ele>
        <time>2011-04-19T10:49:44Z</time>
      </trkpt>
      <trkpt lat="35.35016" lon="-5.36681">
        <ele>570.813</ele>
        <time>2011-04-19T10:49:45Z</time>
      </trkpt>
      <trkpt lat="35.34945" lon="-5.36669">
        <ele>578.115</ele>
        <time>2011-04-19T10:49:51Z</time>
      </trkpt>
      <trkpt lat="35.34269" lon="-5.36907">
        <ele>600.808</ele>
        <time>2011-04-19T10:50:42Z</time>
      </trkpt>
      <trkpt lat="35.34191" lon="-5.3662">
        <ele>609.701</ele>
        <time>2011-04-19T10:51:06Z</time>
      </trkpt>
      <trkpt lat="35.33984" lon="-5.36423">
        <ele>633.201</ele>
        <time>2011-04-19T10:51:26Z</time>
      </trkpt>
      <trkpt lat="35.33898" lon="-5.36359">
        <ele>639.076</ele>
        <time>2011-04-19T10:51:33Z</time>
      </trkpt>
      <trkpt lat="35.33602" lon="-5.36097">
        <ele>622.228</ele>
        <time>2011-04-19T10:52:01Z</time>
      </trkpt>
      <trkpt lat="35.32336" lon="-5.35845">
        <ele>590.861</ele>
        <time>2011-04-19T10:53:22Z</time>
      </trkpt>
      <trkpt lat="35.31303" lon="-5.3541">
        <ele>582.582</ele>
        <time>2011-04-19T10:54:41Z</time>
      </trkpt>
      <trkpt lat="35.31041" lon="-5.35213">
        <ele>558.295</ele>
        <time>2011-04-19T10:55:06Z</time>
      </trkpt>
      <trkpt lat="35.30826" lon="-5.35194">
        <ele>553.628</ele>
        <time>2011-04-19T10:55:24Z</time>
      </trkpt>
      <trkpt lat="35.30265" lon="-5.34912">
        <ele>553.191</ele>
        <time>2011-04-19T10:56:04Z</time>
      </trkpt>
      <trkpt lat="35.29739" lon="-5.35068">
        <ele>562.801</ele>
        <time>2011-04-19T10:56:40Z</time>
      </trkpt>
      <trkpt lat="35.29325" lon="-5.34961">
        <ele>544.842</ele>
        <time>2011-04-19T10:57:07Z</time>
      </trkpt>
      <trkpt lat="35.29271" lon="-5.34927">
        <ele>539.087</ele>
        <time>2011-04-19T10:57:11Z</time>
      </trkpt>
      <trkpt lat="35.28954" lon="-5.34957">
        <ele>519.336</ele>
        <time>2011-04-19T10:57:30Z</time>
      </trkpt>
      <trkpt lat="35.28615" lon="-5.34884">
        <ele>498.032</ele>
        <time>2011-04-19T10:57:53Z</time>
      </trkpt>
      <trkpt lat="35.28568" lon="-5.34884">
        <ele>492.863</ele>
        <time>2011-04-19T10:57:56Z</time>
      </trkpt>
      <trkpt lat="35.28146" lon="-5.35171">
        <ele>469.141</ele>
        <time>2011-04-19T10:58:28Z</time>
      </trkpt>
      <trkpt lat="35.28099" lon="-5.35209">
        <ele>465.966</ele>
        <time>2011-04-19T10:58:32Z</time>
      </trkpt>
      <trkpt lat="35.27874" lon="-5.35175">
        <ele>465.186</ele>
        <time>2011-04-19T10:58:47Z</time>
      </trkpt>
      <trkpt lat="35.27841" lon="-5.35153">
        <ele>463.398</ele>
        <time>2011-04-19T10:58:49Z</time>
      </trkpt>
      <trkpt lat="35.27676" lon="-5.35005">
        <ele>452.76</ele>
        <time>2011-04-19T10:59:00Z</time>
      </trkpt>
      <trkpt lat="35.27564" lon="-5.34822">
        <ele>432.337</ele>
        <time>2011-04-19T10:59:16Z</time>
      </trkpt>
      <trkpt lat="35.27414" lon="-5.34826">
        <ele>422.108</ele>
        <time>2011-04-19T10:59:26Z</time>
      </trkpt>
      <trkpt lat="35.2729" lon="-5.34991">
        <ele>413.831</ele>
        <time>2011-04-19T10:59:37Z</time>
      </trkpt>
      <trkpt lat="35.27159" lon="-5.35058">
        <ele>403.684</ele>
        <time>2011-04-19T10:59:48Z</time>
      </trkpt>
      <trkpt lat="35.26913" lon="-5.35038">
        <ele>387.649</ele>
        <time>2011-04-19T11:00:05Z</time>
      </trkpt>
      <trkpt lat="35.26793" lon="-5.34917">
        <ele>384.595</ele>
        <time>2011-04-19T11:00:15Z</time>
      </trkpt>
      <trkpt lat="35.26718" lon="-5.3488">
        <ele>379.13</ele>
        <time>2011-04-19T11:00:21Z</time>
      </trkpt>
      <trkpt lat="35.2654" lon="-5.34948">
        <ele>376.783</ele>
        <time>2011-04-19T11:00:34Z</time>
      </trkpt>
      <trkpt lat="35.26413" lon="-5.34678">
        <ele>373.301</ele>
        <time>2011-04-19T11:00:48Z</time>
      </trkpt>
      <trkpt lat="35.2616" lon="-5.34629">
        <ele>374.278</ele>
        <time>2011-04-19T11:01:09Z</time>
      </trkpt>
      <trkpt lat="35.26042" lon="-5.34521">
        <ele>369.617</ele>
        <time>2011-04-19T11:01:20Z</time>
      </trkpt>
      <trkpt lat="35.25936" lon="-5.34206">
        <ele>344.531</ele>
        <time>2011-04-19T11:01:43Z</time>
      </trkpt>
      <trkpt lat="35.25713" lon="-5.34111">
        <ele>324.856</ele>
        <time>2011-04-19T11:01:59Z</time>
      </trkpt>
      <trkpt lat="35.25651" lon="-5.34149">
        <ele>322.136</ele>
        <time>2011-04-19T11:02:01Z</time>
      </trkpt>
      <trkpt lat="35.24433" lon="-5.32978">
        <ele>296.191</ele>
        <time>2011-04-19T11:03:36Z</time>
      </trkpt>
      <trkpt lat="35.24246" lon="-5.32625">
        <ele>292.422</ele>
        <time>2011-04-19T11:04:00Z</time>
      </trkpt>
      <trkpt lat="35.23687" lon="-5.32404">
        <ele>294.807</ele>
        <time>2011-04-19T11:04:29Z</time>
      </trkpt>
      <trkpt lat="35.23298" lon="-5.32431">
        <ele>284.805</ele>
        <time>2011-04-19T11:04:52Z</time>
      </trkpt>
      <trkpt lat="35.22916" lon="-5.32252">
        <ele>275.292</ele>
        <time>2011-04-19T11:05:19Z</time>
      </trkpt>
      <trkpt lat="35.22468" lon="-5.32173">
        <ele>275.918</ele>
        <time>2011-04-19T11:05:48Z</time>
      </trkpt>
      <trkpt lat="35.22441" lon="-5.32161">
        <ele>273.951</ele>
        <time>2011-04-19T11:05:50Z</time>
      </trkpt>
      <trkpt lat="35.22074" lon="-5.31566">
        <ele>272.081</ele>
        <time>2011-04-19T11:06:25Z</time>
      </trkpt>
      <trkpt lat="35.21998" lon="-5.31515">
        <ele>273.381</ele>
        <time>2011-04-19T11:06:31Z</time>
      </trkpt>
      <trkpt lat="35.21013" lon="-5.31773">
        <ele>268.931</ele>
        <time>2011-04-19T11:07:28Z</time>
      </trkpt>
      <trkpt lat="35.20666" lon="-5.31734">
        <ele>272.442</ele>
        <time>2011-04-19T11:07:50Z</time>
      </trkpt>
      <trkpt lat="35.20165" lon="-5.31316">
        <ele>268.891</ele>
        <time>2011-04-19T11:08:26Z</time>
      </trkpt>
      <trkpt lat="35.19774" lon="-5.31146">
        <ele>275.404</ele>
        <time>2011-04-19T11:08:53Z</time>
      </trkpt>
      <trkpt lat="35.19418" lon="-5.31004">
        <ele>266.282</ele>
        <time>2011-04-19T11:09:24Z</time>
      </trkpt>
      <trkpt lat="35.19358" lon="-5.30887">
        <ele>268.719</ele>
        <time>2011-04-19T11:09:33Z</time>
      </trkpt>
      <trkpt lat="35.19398" lon="-5.30643">
        <ele>272.843</ele>
        <time>2011-04-19T11:09:51Z</time>
      </trkpt>
      <trkpt lat="35.19255" lon="-5.3039">
        <ele>295.052</ele>
        <time>2011-04-19T11:10:06Z</time>
      </trkpt>
      <trkpt lat="35.19098" lon="-5.30352">
        <ele>313.686</ele>
        <time>2011-04-19T11:10:20Z</time>
      </trkpt>
      <trkpt lat="35.19067" lon="-5.30245">
        <ele>318.484</ele>
        <time>2011-04-19T11:10:27Z</time>
      </trkpt>
      <trkpt lat="35.19269" lon="-5.29656">
        <ele>368.567</ele>
        <time>2011-04-19T11:10:59Z</time>
      </trkpt>
      <trkpt lat="35.19203" lon="-5.29104">
        <ele>417.631</ele>
        <time>2011-04-19T11:11:42Z</time>
      </trkpt>
      <trkpt lat="35.19113" lon="-5.2889">
        <ele>437.599</ele>
        <time>2011-04-19T11:12:05Z</time>
      </trkpt>
      <trkpt lat="35.19086" lon="-5.28777">
        <ele>444.583</ele>
        <time>2011-04-19T11:12:15Z</time>
      </trkpt>
      <trkpt lat="35.18854" lon="-5.2857">
        <ele>467.592</ele>
        <time>2011-04-19T11:12:45Z</time>
      </trkpt>
      <trkpt lat="35.18475" lon="-5.28505">
        <ele>494.703</ele>
        <time>2011-04-19T11:13:16Z</time>
      </trkpt>
      <trkpt lat="35.18369" lon="-5.2844">
        <ele>496.517</ele>
        <time>2011-04-19T11:13:26Z</time>
      </trkpt>
      <trkpt lat="35.18284" lon="-5.28498">
        <ele>505.751</ele>
        <time>2011-04-19T11:13:34Z</time>
      </trkpt>
      <trkpt lat="35.18218" lon="-5.28472">
        <ele>509.613</ele>
        <time>2011-04-19T11:13:44Z</time>
      </trkpt>
      <trkpt lat="35.18182" lon="-5.28375">
        <ele>509.862</ele>
        <time>2011-04-19T11:13:58Z</time>
      </trkpt>
      <trkpt lat="35.18099" lon="-5.28313">
        <ele>509.518</ele>
        <time>2011-04-19T11:14:08Z</time>
      </trkpt>
      <trkpt lat="35.17906" lon="-5.28361">
        <ele>514.987</ele>
        <time>2011-04-19T11:14:27Z</time>
      </trkpt>
      <trkpt lat="35.17569" lon="-5.28314">
        <ele>518.363</ele>
        <time>2011-04-19T11:14:57Z</time>
      </trkpt>
      <trkpt lat="35.17476" lon="-5.27929">
        <ele>536.742</ele>
        <time>2011-04-19T11:15:27Z</time>
      </trkpt>
      <trkpt lat="35.17437" lon="-5.27881">
        <ele>538.609</ele>
        <time>2011-04-19T11:15:31Z</time>
      </trkpt>
      <trkpt lat="35.17256" lon="-5.27621">
        <ele>539.538</ele>
        <time>2011-04-19T11:15:57Z</time>
      </trkpt>
      <trkpt lat="35.17304" lon="-5.27317">
        <ele>542.97</ele>
        <time>2011-04-19T11:16:23Z</time>
      </trkpt>
      <trkpt lat="35.17067" lon="-5.27296">
        <ele>541.295</ele>
        <time>2011-04-19T11:16:44Z</time>
      </trkpt>
      <trkpt lat="35.17034" lon="-5.2709">
        <ele>539.425</ele>
        <time>2011-04-19T11:17:06Z</time>
      </trkpt>
      <trkpt lat="35.16808" lon="-5.26924">
        <ele>554.795</ele>
        <time>2011-04-19T11:18:03Z</time>
      </trkpt>
      <trkpt lat="35.16751" lon="-5.26759">
        <ele>574.639</ele>
        <time>2011-04-19T14:06:56Z</time>
      </trkpt>
      <trkpt lat="35.16712" lon="-5.2659">
        <ele>577.973</ele>
        <time>2011-04-19T14:13:41Z</time>
      </trkpt>
      <trkpt lat="35.16595" lon="-5.26232">
        <ele>552.147</ele>
        <time>2011-04-19T14:14:49Z</time>
      </trkpt>
      <trkpt lat="35.1632" lon="-5.26115">
        <ele>565.716</ele>
        <time>2011-04-19T14:15:17Z</time>
      </trkpt>
      <trkpt lat="35.16084" lon="-5.26189">
        <ele>585.946</ele>
        <time>2011-04-19T14:15:42Z</time>
      </trkpt>
      <trkpt lat="35.15947" lon="-5.26154">
        <ele>595.909</ele>
        <time>2011-04-19T14:15:56Z</time>
      </trkpt>
      <trkpt lat="35.15738" lon="-5.26201">
        <ele>596.064</ele>
        <time>2011-04-19T14:16:19Z</time>
      </trkpt>
      <trkpt lat="35.15503" lon="-5.26423">
        <ele>598.725</ele>
        <time>2011-04-19T14:16:52Z</time>
      </trkpt>
      <trkpt lat="35.15516" lon="-5.26601">
        <ele>607.699</ele>
        <time>2011-04-19T14:17:06Z</time>
      </trkpt>
      <trkpt lat="35.15462" lon="-5.26649">
        <ele>612.653</ele>
        <time>2011-04-19T14:17:14Z</time>
      </trkpt>
      <trkpt lat="35.15361" lon="-5.26676">
        <ele>612.502</ele>
        <time>2011-04-19T14:17:25Z</time>
      </trkpt>
      <trkpt lat="35.15358" lon="-5.2675">
        <ele>618.514</ele>
        <time>2011-04-19T14:17:30Z</time>
      </trkpt>
      <trkpt lat="35.1533" lon="-5.26805">
        <ele>619.387</ele>
        <time>2011-04-19T14:17:36Z</time>
      </trkpt>
      <trkpt lat="35.15256" lon="-5.26814">
        <ele>614.24</ele>
        <time>2011-04-19T14:17:45Z</time>
      </trkpt>
      <trkpt lat="35.15217" lon="-5.26972">
        <ele>610.294</ele>
        <time>2011-04-19T14:17:55Z</time>
      </trkpt>
      <trkpt lat="35.15147" lon="-5.27078">
        <ele>604.173</ele>
        <time>2011-04-19T14:18:03Z</time>
      </trkpt>
      <trkpt lat="35.14945" lon="-5.27313">
        <ele>582.243</ele>
        <time>2011-04-19T14:19:08Z</time>
      </trkpt>
      <trkpt lat="35.14816" lon="-5.2719">
        <ele>566.591</ele>
        <time>2011-04-19T14:19:24Z</time>
      </trkpt>
      <trkpt lat="35.14713" lon="-5.27279">
        <ele>564.463</ele>
        <time>2011-04-19T14:19:36Z</time>
      </trkpt>
      <trkpt lat="35.14545" lon="-5.27235">
        <ele>567.454</ele>
        <time>2011-04-19T14:19:51Z</time>
      </trkpt>
      <trkpt lat="35.14408" lon="-5.27249">
        <ele>565.482</ele>
        <time>2011-04-19T14:20:01Z</time>
      </trkpt>
      <trkpt lat="35.143" lon="-5.27232">
        <ele>557.126</ele>
        <time>2011-04-19T14:20:11Z</time>
      </trkpt>
      <trkpt lat="35.14133" lon="-5.27354">
        <ele>548.84</ele>
        <time>2011-04-19T14:20:27Z</time>
      </trkpt>
      <trkpt lat="35.1408" lon="-5.27317">
        <ele>547.435</ele>
        <time>2011-04-19T14:20:33Z</time>
      </trkpt>
      <trkpt lat="35.1402" lon="-5.27269">
        <ele>543.15</ele>
        <time>2011-04-19T14:20:43Z</time>
      </trkpt>
      <trkpt lat="35.13751" lon="-5.27518">
        <ele>532.601</ele>
        <time>2011-04-19T14:21:08Z</time>
      </trkpt>
      <trkpt lat="35.13657" lon="-5.27799">
        <ele>517.771</ele>
        <time>2011-04-19T14:21:26Z</time>
      </trkpt>
      <trkpt lat="35.13649" lon="-5.28142">
        <ele>504.054</ele>
        <time>2011-04-19T14:21:45Z</time>
      </trkpt>
      <trkpt lat="35.13629" lon="-5.28183">
        <ele>500.117</ele>
        <time>2011-04-19T14:21:48Z</time>
      </trkpt>
      <trkpt lat="35.13472" lon="-5.28258">
        <ele>487.747</ele>
        <time>2011-04-19T14:22:00Z</time>
      </trkpt>
      <trkpt lat="35.13306" lon="-5.28569">
        <ele>468.986</ele>
        <time>2011-04-19T14:22:20Z</time>
      </trkpt>
      <trkpt lat="35.13064" lon="-5.28798">
        <ele>449.15</ele>
        <time>2011-04-19T14:22:41Z</time>
      </trkpt>
      <trkpt lat="35.13013" lon="-5.28833">
        <ele>443.762</ele>
        <time>2011-04-19T14:22:45Z</time>
      </trkpt>
      <trkpt lat="35.12642" lon="-5.28759">
        <ele>411.689</ele>
        <time>2011-04-19T14:23:12Z</time>
      </trkpt>
      <trkpt lat="35.12339" lon="-5.28973">
        <ele>394.893</ele>
        <time>2011-04-19T14:23:38Z</time>
      </trkpt>
      <trkpt lat="35.11981" lon="-5.28892">
        <ele>377.071</ele>
        <time>2011-04-19T14:24:07Z</time>
      </trkpt>
      <trkpt lat="35.11758" lon="-5.28927">
        <ele>373.592</ele>
        <time>2011-04-19T14:24:29Z</time>
      </trkpt>
      <trkpt lat="35.11754" lon="-5.2899">
        <ele>374.573</ele>
        <time>2011-04-19T14:24:36Z</time>
      </trkpt>
      <trkpt lat="35.11462" lon="-5.28796">
        <ele>381.739</ele>
        <time>2011-04-19T14:25:07Z</time>
      </trkpt>
      <trkpt lat="35.11083" lon="-5.28706">
        <ele>385.478</ele>
        <time>2011-04-19T14:25:48Z</time>
      </trkpt>
      <trkpt lat="35.10566" lon="-5.2904">
        <ele>404.008</ele>
        <time>2011-04-19T14:26:34Z</time>
      </trkpt>
      <trkpt lat="35.1014" lon="-5.29611">
        <ele>427.088</ele>
        <time>2011-04-19T14:27:26Z</time>
      </trkpt>
      <trkpt lat="35.10018" lon="-5.29862">
        <ele>438.861</ele>
        <time>2011-04-19T14:27:44Z</time>
      </trkpt>
      <trkpt lat="35.09736" lon="-5.30188">
        <ele>466.348</ele>
        <time>2011-04-19T14:28:05Z</time>
      </trkpt>
      <trkpt lat="35.09697" lon="-5.30396">
        <ele>473.895</ele>
        <time>2011-04-19T14:28:18Z</time>
      </trkpt>
      <trkpt lat="35.09741" lon="-5.30707">
        <ele>464.801</ele>
        <time>2011-04-19T14:28:37Z</time>
      </trkpt>
      <trkpt lat="35.09527" lon="-5.30966">
        <ele>440.663</ele>
        <time>2011-04-19T14:29:07Z</time>
      </trkpt>
      <trkpt lat="35.09445" lon="-5.30967">
        <ele>435.156</ele>
        <time>2011-04-19T14:29:15Z</time>
      </trkpt>
      <trkpt lat="35.09197" lon="-5.30735">
        <ele>422.049</ele>
        <time>2011-04-19T14:29:56Z</time>
      </trkpt>
      <trkpt lat="35.0866" lon="-5.30702">
        <ele>393.534</ele>
        <time>2011-04-19T14:30:42Z</time>
      </trkpt>
      <trkpt lat="35.08426" lon="-5.30833">
        <ele>376.166</ele>
        <time>2011-04-19T14:31:08Z</time>
      </trkpt>
      <trkpt lat="35.08244" lon="-5.30844">
        <ele>358.737</ele>
        <time>2011-04-19T14:31:27Z</time>
      </trkpt>
      <trkpt lat="35.07955" lon="-5.31056">
        <ele>335.576</ele>
        <time>2011-04-19T14:31:54Z</time>
      </trkpt>
      <trkpt lat="35.07706" lon="-5.31342">
        <ele>303.516</ele>
        <time>2011-04-19T14:32:20Z</time>
      </trkpt>
      <trkpt lat="35.07525" lon="-5.31375">
        <ele>289.018</ele>
        <time>2011-04-19T14:32:34Z</time>
      </trkpt>
      <trkpt lat="35.07415" lon="-5.31571">
        <ele>280.179</ele>
        <time>2011-04-19T14:32:48Z</time>
      </trkpt>
      <trkpt lat="35.07382" lon="-5.32152">
        <ele>270.642</ele>
        <time>2011-04-19T14:33:22Z</time>
      </trkpt>
      <trkpt lat="35.06917" lon="-5.32698">
        <ele>273.532</ele>
        <time>2011-04-19T14:34:03Z</time>
      </trkpt>
      <trkpt lat="35.06789" lon="-5.32951">
        <ele>262.672</ele>
        <time>2011-04-19T14:34:19Z</time>
      </trkpt>
      <trkpt lat="35.06333" lon="-5.33342">
        <ele>247.207</ele>
        <time>2011-04-19T14:34:55Z</time>
      </trkpt>
      <trkpt lat="35.05889" lon="-5.33602">
        <ele>238.144</ele>
        <time>2011-04-19T14:35:23Z</time>
      </trkpt>
      <trkpt lat="35.05568" lon="-5.34191">
        <ele>243.024</ele>
        <time>2011-04-19T14:35:53Z</time>
      </trkpt>
      <trkpt lat="35.05456" lon="-5.3434">
        <ele>233.709</ele>
        <time>2011-04-19T14:36:01Z</time>
      </trkpt>
      <trkpt lat="35.05234" lon="-5.34791">
        <ele>222.007</ele>
        <time>2011-04-19T14:36:26Z</time>
      </trkpt>
      <trkpt lat="35.0503" lon="-5.35074">
        <ele>218.978</ele>
        <time>2011-04-19T14:36:44Z</time>
      </trkpt>
      <trkpt lat="35.04733" lon="-5.35304">
        <ele>214.752</ele>
        <time>2011-04-19T14:37:06Z</time>
      </trkpt>
      <trkpt lat="35.0449" lon="-5.35291">
        <ele>219.081</ele>
        <time>2011-04-19T14:37:21Z</time>
      </trkpt>
      <trkpt lat="35.04358" lon="-5.35298">
        <ele>210.985</ele>
        <time>2011-04-19T14:37:30Z</time>
      </trkpt>
      <trkpt lat="35.04268" lon="-5.3542">
        <ele>211.709</ele>
        <time>2011-04-19T14:37:39Z</time>
      </trkpt>
      <trkpt lat="35.04228" lon="-5.35617">
        <ele>211.788</ele>
        <time>2011-04-19T14:37:49Z</time>
      </trkpt>
      <trkpt lat="35.04079" lon="-5.35965">
        <ele>204.856</ele>
        <time>2011-04-19T14:38:09Z</time>
      </trkpt>
      <trkpt lat="35.0367" lon="-5.36119">
        <ele>212.684</ele>
        <time>2011-04-19T14:38:37Z</time>
      </trkpt>
      <trkpt lat="35.03411" lon="-5.36372">
        <ele>201.222</ele>
        <time>2011-04-19T14:38:56Z</time>
      </trkpt>
      <trkpt lat="35.02775" lon="-5.37143">
        <ele>198.323</ele>
        <time>2011-04-19T14:39:47Z</time>
      </trkpt>
      <trkpt lat="35.02721" lon="-5.37305">
        <ele>205.209</ele>
        <time>2011-04-19T14:39:56Z</time>
      </trkpt>
      <trkpt lat="35.02563" lon="-5.38158">
        <ele>186.229</ele>
        <time>2011-04-19T14:40:40Z</time>
      </trkpt>
      <trkpt lat="35.02498" lon="-5.38351">
        <ele>180.249</ele>
        <time>2011-04-19T14:40:51Z</time>
      </trkpt>
      <trkpt lat="35.02497" lon="-5.38565">
        <ele>181.439</ele>
        <time>2011-04-19T14:41:01Z</time>
      </trkpt>
      <trkpt lat="35.0262" lon="-5.38876">
        <ele>179.297</ele>
        <time>2011-04-19T14:41:16Z</time>
      </trkpt>
      <trkpt lat="35.02626" lon="-5.3905">
        <ele>184.391</ele>
        <time>2011-04-19T14:41:24Z</time>
      </trkpt>
      <trkpt lat="35.02693" lon="-5.39371">
        <ele>186.124</ele>
        <time>2011-04-19T14:41:41Z</time>
      </trkpt>
      <trkpt lat="35.02961" lon="-5.39665">
        <ele>199.716</ele>
        <time>2011-04-19T14:42:02Z</time>
      </trkpt>
      <trkpt lat="35.03064" lon="-5.39793">
        <ele>201.02</ele>
        <time>2011-04-19T14:42:12Z</time>
      </trkpt>
      <trkpt lat="35.03205" lon="-5.40046">
        <ele>184.642</ele>
        <time>2011-04-19T14:42:33Z</time>
      </trkpt>
      <trkpt lat="35.02665" lon="-5.40942">
        <ele>168.8</ele>
        <time>2011-04-19T14:43:52Z</time>
      </trkpt>
      <trkpt lat="35.02306" lon="-5.41074">
        <ele>193.258</ele>
        <time>2011-04-19T14:44:22Z</time>
      </trkpt>
      <trkpt lat="35.02248" lon="-5.4121">
        <ele>201.53</ele>
        <time>2011-04-19T14:44:33Z</time>
      </trkpt>
      <trkpt lat="35.02246" lon="-5.4125">
        <ele>201.447</ele>
        <time>2011-04-19T14:44:36Z</time>
      </trkpt>
      <trkpt lat="35.02244" lon="-5.41786">
        <ele>163.084</ele>
        <time>2011-04-19T14:45:05Z</time>
      </trkpt>
      <trkpt lat="35.02178" lon="-5.42156">
        <ele>153.892</ele>
        <time>2011-04-19T14:45:27Z</time>
      </trkpt>
      <trkpt lat="35.02703" lon="-5.43134">
        <ele>157.907</ele>
        <time>2011-04-19T14:46:32Z</time>
      </trkpt>
      <trkpt lat="35.02843" lon="-5.43844">
        <ele>160.727</ele>
        <time>2011-04-19T14:47:09Z</time>
      </trkpt>
      <trkpt lat="35.03081" lon="-5.44068">
        <ele>150.246</ele>
        <time>2011-04-19T14:47:31Z</time>
      </trkpt>
      <trkpt lat="35.03278" lon="-5.44652">
        <ele>168.141</ele>
        <time>2011-04-19T14:48:03Z</time>
      </trkpt>
      <trkpt lat="35.03304" lon="-5.45048">
        <ele>158.032</ele>
        <time>2011-04-19T14:48:25Z</time>
      </trkpt>
      <trkpt lat="35.03489" lon="-5.45329">
        <ele>149.237</ele>
        <time>2011-04-19T14:48:42Z</time>
      </trkpt>
      <trkpt lat="35.03758" lon="-5.45603">
        <ele>145.181</ele>
        <time>2011-04-19T14:49:02Z</time>
      </trkpt>
      <trkpt lat="35.03939" lon="-5.46205">
        <ele>143.176</ele>
        <time>2011-04-19T14:49:30Z</time>
      </trkpt>
      <trkpt lat="35.03943" lon="-5.46389">
        <ele>143.971</ele>
        <time>2011-04-19T14:49:38Z</time>
      </trkpt>
      <trkpt lat="35.03867" lon="-5.46573">
        <ele>138.959</ele>
        <time>2011-04-19T14:49:49Z</time>
      </trkpt>
      <trkpt lat="35.03544" lon="-5.46842">
        <ele>134.476</ele>
        <time>2011-04-19T14:50:10Z</time>
      </trkpt>
      <trkpt lat="35.03482" lon="-5.46954">
        <ele>135.352</ele>
        <time>2011-04-19T14:50:17Z</time>
      </trkpt>
      <trkpt lat="35.0349" lon="-5.47358">
        <ele>133.582</ele>
        <time>2011-04-19T14:50:36Z</time>
      </trkpt>
      <trkpt lat="35.03443" lon="-5.4749">
        <ele>135.768</ele>
        <time>2011-04-19T14:50:44Z</time>
      </trkpt>
      <trkpt lat="35.03083" lon="-5.47647">
        <ele>163.082</ele>
        <time>2011-04-19T14:51:12Z</time>
      </trkpt>
      <trkpt lat="35.02898" lon="-5.47849">
        <ele>181.695</ele>
        <time>2011-04-19T14:51:28Z</time>
      </trkpt>
      <trkpt lat="35.02638" lon="-5.47835">
        <ele>204.132</ele>
        <time>2011-04-19T14:51:45Z</time>
      </trkpt>
      <trkpt lat="35.02212" lon="-5.47631">
        <ele>241.854</ele>
        <time>2011-04-19T14:52:14Z</time>
      </trkpt>
      <trkpt lat="35.02025" lon="-5.47574">
        <ele>251.801</ele>
        <time>2011-04-19T14:52:26Z</time>
      </trkpt>
      <trkpt lat="35.01847" lon="-5.47683">
        <ele>243.691</ele>
        <time>2011-04-19T14:52:42Z</time>
      </trkpt>
      <trkpt lat="35.01798" lon="-5.47986">
        <ele>219.18</ele>
        <time>2011-04-19T14:53:01Z</time>
      </trkpt>
      <trkpt lat="35.01603" lon="-5.48445">
        <ele>188.143</ele>
        <time>2011-04-19T14:53:26Z</time>
      </trkpt>
      <trkpt lat="35.01586" lon="-5.48483">
        <ele>183.747</ele>
        <time>2011-04-19T14:53:28Z</time>
      </trkpt>
      <trkpt lat="35.00781" lon="-5.48919">
        <ele>156.411</ele>
        <time>2011-04-19T14:54:20Z</time>
      </trkpt>
      <trkpt lat="35.0071" lon="-5.49006">
        <ele>152.498</ele>
        <time>2011-04-19T14:54:29Z</time>
      </trkpt>
      <trkpt lat="35.00452" lon="-5.49539">
        <ele>127.693</ele>
        <time>2011-04-19T14:54:57Z</time>
      </trkpt>
      <trkpt lat="35.00326" lon="-5.50112">
        <ele>137.992</ele>
        <time>2011-04-19T14:55:22Z</time>
      </trkpt>
      <trkpt lat="35.00296" lon="-5.50188">
        <ele>131.995</ele>
        <time>2011-04-19T14:55:26Z</time>
      </trkpt>
      <trkpt lat="34.99874" lon="-5.5054">
        <ele>116.293</ele>
        <time>2011-04-19T14:55:52Z</time>
      </trkpt>
      <trkpt lat="34.9948" lon="-5.51022">
        <ele>106.522</ele>
        <time>2011-04-19T14:56:32Z</time>
      </trkpt>
      <trkpt lat="34.99052" lon="-5.51174">
        <ele>106.59</ele>
        <time>2011-04-19T14:56:59Z</time>
      </trkpt>
      <trkpt lat="34.98839" lon="-5.5137">
        <ele>111.831</ele>
        <time>2011-04-19T14:57:15Z</time>
      </trkpt>
      <trkpt lat="34.98719" lon="-5.51913">
        <ele>129.628</ele>
        <time>2011-04-19T14:57:40Z</time>
      </trkpt>
      <trkpt lat="34.9871" lon="-5.52118">
        <ele>128.131</ele>
        <time>2011-04-19T14:57:50Z</time>
      </trkpt>
      <trkpt lat="34.9877" lon="-5.52567">
        <ele>103.925</ele>
        <time>2011-04-19T14:58:13Z</time>
      </trkpt>
      <trkpt lat="34.98696" lon="-5.52923">
        <ele>102.21</ele>
        <time>2011-04-19T14:58:34Z</time>
      </trkpt>
      <trkpt lat="34.9881" lon="-5.5359">
        <ele>98.292</ele>
        <time>2011-04-19T14:59:06Z</time>
      </trkpt>
      <trkpt lat="34.98796" lon="-5.53865">
        <ele>100.772</ele>
        <time>2011-04-19T14:59:19Z</time>
      </trkpt>
      <trkpt lat="34.9871" lon="-5.54019">
        <ele>102.13</ele>
        <time>2011-04-19T14:59:28Z</time>
      </trkpt>
      <trkpt lat="34.98397" lon="-5.54256">
        <ele>112.176</ele>
        <time>2011-04-19T14:59:49Z</time>
      </trkpt>
      <trkpt lat="34.98382" lon="-5.54265">
        <ele>112.359</ele>
        <time>2011-04-19T14:59:50Z</time>
      </trkpt>
      <trkpt lat="34.97828" lon="-5.54548">
        <ele>112.948</ele>
        <time>2011-04-19T15:00:30Z</time>
      </trkpt>
      <trkpt lat="34.97559" lon="-5.54674">
        <ele>103.903</ele>
        <time>2011-04-19T15:00:47Z</time>
      </trkpt>
      <trkpt lat="34.97455" lon="-5.54653">
        <ele>102.321</ele>
        <time>2011-04-19T15:00:55Z</time>
      </trkpt>
      <trkpt lat="34.97318" lon="-5.54408">
        <ele>105.032</ele>
        <time>2011-04-19T15:01:12Z</time>
      </trkpt>
      <trkpt lat="34.97176" lon="-5.54227">
        <ele>103.151</ele>
        <time>2011-04-19T15:01:25Z</time>
      </trkpt>
      <trkpt lat="34.97037" lon="-5.54156">
        <ele>102.36</ele>
        <time>2011-04-19T15:01:34Z</time>
      </trkpt>
      <trkpt lat="34.96319" lon="-5.54078">
        <ele>107.136</ele>
        <time>2011-04-19T15:02:15Z</time>
      </trkpt>
      <trkpt lat="34.96173" lon="-5.53979">
        <ele>108.19</ele>
        <time>2011-04-19T15:02:24Z</time>
      </trkpt>
      <trkpt lat="34.9593" lon="-5.5373">
        <ele>106.19</ele>
        <time>2011-04-19T15:02:42Z</time>
      </trkpt>
      <trkpt lat="34.95862" lon="-5.53172">
        <ele>111.01</ele>
        <time>2011-04-19T15:03:09Z</time>
      </trkpt>
      <trkpt lat="34.95802" lon="-5.53086">
        <ele>113.13</ele>
        <time>2011-04-19T15:03:15Z</time>
      </trkpt>
      <trkpt lat="34.95497" lon="-5.5283">
        <ele>131.092</ele>
        <time>2011-04-19T15:03:37Z</time>
      </trkpt>
      <trkpt lat="34.95174" lon="-5.52822">
        <ele>155.213</ele>
        <time>2011-04-19T15:03:55Z</time>
      </trkpt>
      <trkpt lat="34.95114" lon="-5.5284">
        <ele>158.399</ele>
        <time>2011-04-19T15:03:58Z</time>
      </trkpt>
      <trkpt lat="34.94769" lon="-5.53041">
        <ele>146.317</ele>
        <time>2011-04-19T15:04:18Z</time>
      </trkpt>
      <trkpt lat="34.94399" lon="-5.53117">
        <ele>136.819</ele>
        <time>2011-04-19T15:04:40Z</time>
      </trkpt>
      <trkpt lat="34.94174" lon="-5.53265">
        <ele>154.873</ele>
        <time>2011-04-19T15:04:56Z</time>
      </trkpt>
      <trkpt lat="34.94056" lon="-5.53385">
        <ele>155.716</ele>
        <time>2011-04-19T15:05:05Z</time>
      </trkpt>
      <trkpt lat="34.93972" lon="-5.53477">
        <ele>150.197</ele>
        <time>2011-04-19T15:05:12Z</time>
      </trkpt>
      <trkpt lat="34.93811" lon="-5.53459">
        <ele>145.549</ele>
        <time>2011-04-19T15:05:22Z</time>
      </trkpt>
      <trkpt lat="34.93639" lon="-5.53333">
        <ele>137.095</ele>
        <time>2011-04-19T15:05:37Z</time>
      </trkpt>
      <trkpt lat="34.93134" lon="-5.53253">
        <ele>144.318</ele>
        <time>2011-04-19T15:06:11Z</time>
      </trkpt>
      <trkpt lat="34.92981" lon="-5.53228">
        <ele>135.315</ele>
        <time>2011-04-19T15:06:22Z</time>
      </trkpt>
      <trkpt lat="34.92534" lon="-5.53373">
        <ele>132.075</ele>
        <time>2011-04-19T15:06:50Z</time>
      </trkpt>
      <trkpt lat="34.92309" lon="-5.53582">
        <ele>133.305</ele>
        <time>2011-04-19T15:07:08Z</time>
      </trkpt>
      <trkpt lat="34.92141" lon="-5.539">
        <ele>136.386</ele>
        <time>2011-04-19T15:07:28Z</time>
      </trkpt>
      <trkpt lat="34.92077" lon="-5.5398">
        <ele>136.443</ele>
        <time>2011-04-19T15:07:34Z</time>
      </trkpt>
      <trkpt lat="34.91891" lon="-5.5409">
        <ele>134.447</ele>
        <time>2011-04-19T15:07:47Z</time>
      </trkpt>
      <trkpt lat="34.91637" lon="-5.5395">
        <ele>139.434</ele>
        <time>2011-04-19T15:08:04Z</time>
      </trkpt>
      <trkpt lat="34.9152" lon="-5.53752">
        <ele>140.729</ele>
        <time>2011-04-19T15:08:16Z</time>
      </trkpt>
      <trkpt lat="34.91433" lon="-5.53686">
        <ele>139.881</ele>
        <time>2011-04-19T15:08:23Z</time>
      </trkpt>
      <trkpt lat="34.90931" lon="-5.53644">
        <ele>148.583</ele>
        <time>2011-04-19T15:08:51Z</time>
      </trkpt>
      <trkpt lat="34.90705" lon="-5.53571">
        <ele>153.402</ele>
        <time>2011-04-19T15:09:04Z</time>
      </trkpt>
      <trkpt lat="34.90495" lon="-5.53388">
        <ele>168.034</ele>
        <time>2011-04-19T15:09:18Z</time>
      </trkpt>
      <trkpt lat="34.90218" lon="-5.53176">
        <ele>159.422</ele>
        <time>2011-04-19T15:09:36Z</time>
      </trkpt>
      <trkpt lat="34.90057" lon="-5.53125">
        <ele>158.802</ele>
        <time>2011-04-19T15:09:46Z</time>
      </trkpt>
      <trkpt lat="34.89189" lon="-5.53504">
        <ele>156.108</ele>
        <time>2011-04-19T15:10:34Z</time>
      </trkpt>
      <trkpt lat="34.88962" lon="-5.5367">
        <ele>165.735</ele>
        <time>2011-04-19T15:10:52Z</time>
      </trkpt>
      <trkpt lat="34.88563" lon="-5.54019">
        <ele>166.15</ele>
        <time>2011-04-19T15:11:30Z</time>
      </trkpt>
      <trkpt lat="34.88498" lon="-5.54048">
        <ele>164.339</ele>
        <time>2011-04-19T15:11:35Z</time>
      </trkpt>
      <trkpt lat="34.88197" lon="-5.54104">
        <ele>179.283</ele>
        <time>2011-04-19T15:11:52Z</time>
      </trkpt>
      <trkpt lat="34.87982" lon="-5.54038">
        <ele>193.656</ele>
        <time>2011-04-19T15:12:04Z</time>
      </trkpt>
      <trkpt lat="34.87765" lon="-5.53949">
        <ele>203.93</ele>
        <time>2011-04-19T15:12:16Z</time>
      </trkpt>
      <trkpt lat="34.86329" lon="-5.53753">
        <ele>194.292</ele>
        <time>2011-04-19T15:13:24Z</time>
      </trkpt>
      <trkpt lat="34.84249" lon="-5.5398">
        <ele>209.139</ele>
        <time>2011-04-19T15:15:12Z</time>
      </trkpt>
      <trkpt lat="34.83531" lon="-5.54243">
        <ele>220.347</ele>
        <time>2011-04-19T15:15:54Z</time>
      </trkpt>
      <trkpt lat="34.83015" lon="-5.54589">
        <ele>242.734</ele>
        <time>2011-04-19T15:16:22Z</time>
      </trkpt>
      <trkpt lat="34.82567" lon="-5.54959">
        <ele>242.466</ele>
        <time>2011-04-19T15:16:52Z</time>
      </trkpt>
      <trkpt lat="34.81891" lon="-5.55036">
        <ele>264.854</ele>
        <time>2011-04-19T15:17:33Z</time>
      </trkpt>
      <trkpt lat="34.81668" lon="-5.55241">
        <ele>282.158</ele>
        <time>2011-04-19T15:17:49Z</time>
      </trkpt>
      <trkpt lat="34.81449" lon="-5.55564">
        <ele>270.392</ele>
        <time>2011-04-19T15:18:08Z</time>
      </trkpt>
      <trkpt lat="34.81338" lon="-5.55909">
        <ele>258.567</ele>
        <time>2011-04-19T15:18:25Z</time>
      </trkpt>
      <trkpt lat="34.81099" lon="-5.56287">
        <ele>260.308</ele>
        <time>2011-04-19T15:18:48Z</time>
      </trkpt>
      <trkpt lat="34.8053" lon="-5.56929">
        <ele>280.776</ele>
        <time>2011-04-19T15:21:39Z</time>
      </trkpt>
      <trkpt lat="34.80399" lon="-5.57009">
        <ele>281.51</ele>
        <time>2011-04-19T15:21:52Z</time>
      </trkpt>
      <trkpt lat="34.79977" lon="-5.56908">
        <ele>270.148</ele>
        <time>2011-04-19T15:22:31Z</time>
      </trkpt>
      <trkpt lat="34.79673" lon="-5.56969">
        <ele>270.577</ele>
        <time>2011-04-19T15:23:27Z</time>
      </trkpt>
      <trkpt lat="34.7976" lon="-5.56666">
        <ele>273.844</ele>
        <time>2011-04-19T15:32:11Z</time>
      </trkpt>
      <trkpt lat="34.79758" lon="-5.56454">
        <ele>282.505</ele>
        <time>2011-04-19T15:33:46Z</time>
      </trkpt>
      <trkpt lat="34.79758" lon="-5.56437">
        <ele>282.506</ele>
        <time>2011-04-19T15:33:47Z</time>
      </trkpt>
      <trkpt lat="34.79742" lon="-5.56157">
        <ele>270.438</ele>
        <time>2011-04-19T15:34:05Z</time>
      </trkpt>
      <trkpt lat="34.79582" lon="-5.55827">
        <ele>258.835</ele>
        <time>2011-04-19T15:34:30Z</time>
      </trkpt>
      <trkpt lat="34.79547" lon="-5.55776">
        <ele>255.396</ele>
        <time>2011-04-19T15:34:33Z</time>
      </trkpt>
      <trkpt lat="34.78651" lon="-5.55259">
        <ele>208.325</ele>
        <time>2011-04-19T15:35:27Z</time>
      </trkpt>
      <trkpt lat="34.78524" lon="-5.54837">
        <ele>203.448</ele>
        <time>2011-04-19T15:35:50Z</time>
      </trkpt>
      <trkpt lat="34.78209" lon="-5.5453">
        <ele>195.181</ele>
        <time>2011-04-19T15:36:20Z</time>
      </trkpt>
      <trkpt lat="34.77592" lon="-5.54631">
        <ele>193.93</ele>
        <time>2011-04-19T15:37:00Z</time>
      </trkpt>
      <trkpt lat="34.76904" lon="-5.54429">
        <ele>189.613</ele>
        <time>2011-04-19T15:37:46Z</time>
      </trkpt>
      <trkpt lat="34.76351" lon="-5.54176">
        <ele>185.568</ele>
        <time>2011-04-19T15:38:18Z</time>
      </trkpt>
      <trkpt lat="34.75007" lon="-5.54094">
        <ele>172.923</ele>
        <time>2011-04-19T15:39:28Z</time>
      </trkpt>
      <trkpt lat="34.74434" lon="-5.53902">
        <ele>166.827</ele>
        <time>2011-04-19T15:40:00Z</time>
      </trkpt>
      <trkpt lat="34.74164" lon="-5.54002">
        <ele>175.893</ele>
        <time>2011-04-19T15:40:16Z</time>
      </trkpt>
      <trkpt lat="34.73746" lon="-5.54359">
        <ele>171.795</ele>
        <time>2011-04-19T15:40:44Z</time>
      </trkpt>
      <trkpt lat="34.73298" lon="-5.54401">
        <ele>158.665</ele>
        <time>2011-04-19T15:41:09Z</time>
      </trkpt>
      <trkpt lat="34.72884" lon="-5.54802">
        <ele>144.9</ele>
        <time>2011-04-19T15:41:48Z</time>
      </trkpt>
      <trkpt lat="34.72709" lon="-5.54907">
        <ele>146.849</ele>
        <time>2011-04-19T15:42:17Z</time>
      </trkpt>
      <trkpt lat="34.71127" lon="-5.5519">
        <ele>145.533</ele>
        <time>2011-04-19T15:43:37Z</time>
      </trkpt>
      <trkpt lat="34.70734" lon="-5.55358">
        <ele>152.255</ele>
        <time>2011-04-19T15:43:56Z</time>
      </trkpt>
      <trkpt lat="34.70613" lon="-5.55519">
        <ele>157.652</ele>
        <time>2011-04-19T15:44:05Z</time>
      </trkpt>
      <trkpt lat="34.7054" lon="-5.55816">
        <ele>153.625</ele>
        <time>2011-04-19T15:44:17Z</time>
      </trkpt>
      <trkpt lat="34.69773" lon="-5.5717">
        <ele>125.305</ele>
        <time>2011-04-19T15:45:21Z</time>
      </trkpt>
      <trkpt lat="34.6956" lon="-5.57438">
        <ele>124.455</ele>
        <time>2011-04-19T15:45:38Z</time>
      </trkpt>
      <trkpt lat="34.69352" lon="-5.575">
        <ele>122.921</ele>
        <time>2011-04-19T15:45:49Z</time>
      </trkpt>
      <trkpt lat="34.6914" lon="-5.57395">
        <ele>122.213</ele>
        <time>2011-04-19T15:46:01Z</time>
      </trkpt>
      <trkpt lat="34.68983" lon="-5.57183">
        <ele>126.9</ele>
        <time>2011-04-19T15:46:18Z</time>
      </trkpt>
      <trkpt lat="34.68917" lon="-5.5705">
        <ele>125.383</ele>
        <time>2011-04-19T15:46:24Z</time>
      </trkpt>
      <trkpt lat="34.68844" lon="-5.57004">
        <ele>127.338</ele>
        <time>2011-04-19T15:46:28Z</time>
      </trkpt>
      <trkpt lat="34.68675" lon="-5.56876">
        <ele>126.381</ele>
        <time>2011-04-19T15:46:37Z</time>
      </trkpt>
      <trkpt lat="34.68409" lon="-5.56681">
        <ele>115.136</ele>
        <time>2011-04-19T15:46:52Z</time>
      </trkpt>
      <trkpt lat="34.67974" lon="-5.55891">
        <ele>122.373</ele>
        <time>2011-04-19T15:47:35Z</time>
      </trkpt>
      <trkpt lat="34.67471" lon="-5.5532">
        <ele>113.075</ele>
        <time>2011-04-19T15:48:10Z</time>
      </trkpt>
      <trkpt lat="34.67139" lon="-5.55279">
        <ele>107.36</ele>
        <time>2011-04-19T15:48:28Z</time>
      </trkpt>
      <trkpt lat="34.66876" lon="-5.55336">
        <ele>107.29</ele>
        <time>2011-04-19T15:48:41Z</time>
      </trkpt>
      <trkpt lat="34.66744" lon="-5.5535">
        <ele>104.81</ele>
        <time>2011-04-19T15:48:48Z</time>
      </trkpt>
      <trkpt lat="34.66527" lon="-5.55241">
        <ele>113.926</ele>
        <time>2011-04-19T15:49:00Z</time>
      </trkpt>
      <trkpt lat="34.66508" lon="-5.5523">
        <ele>113.923</ele>
        <time>2011-04-19T15:49:01Z</time>
      </trkpt>
      <trkpt lat="34.64827" lon="-5.54278">
        <ele>101.91</ele>
        <time>2011-04-19T15:50:32Z</time>
      </trkpt>
      <trkpt lat="34.64186" lon="-5.54346">
        <ele>103.49</ele>
        <time>2011-04-19T15:51:08Z</time>
      </trkpt>
      <trkpt lat="34.63869" lon="-5.53994">
        <ele>98.547</ele>
        <time>2011-04-19T15:51:30Z</time>
      </trkpt>
      <trkpt lat="34.63711" lon="-5.53388">
        <ele>116.223</ele>
        <time>2011-04-19T15:51:58Z</time>
      </trkpt>
      <trkpt lat="34.63503" lon="-5.53242">
        <ele>104.834</ele>
        <time>2011-04-19T15:52:16Z</time>
      </trkpt>
      <trkpt lat="34.63251" lon="-5.53261">
        <ele>109.257</ele>
        <time>2011-04-19T15:55:22Z</time>
      </trkpt>
      <trkpt lat="34.62929" lon="-5.53871">
        <ele>90.905</ele>
        <time>2011-04-19T15:55:51Z</time>
      </trkpt>
      <trkpt lat="34.62739" lon="-5.53921">
        <ele>90.969</ele>
        <time>2011-04-19T15:56:03Z</time>
      </trkpt>
      <trkpt lat="34.61806" lon="-5.5349">
        <ele>98.421</ele>
        <time>2011-04-19T15:56:45Z</time>
      </trkpt>
      <trkpt lat="34.6147" lon="-5.53257">
        <ele>109.097</ele>
        <time>2011-04-19T15:57:03Z</time>
      </trkpt>
      <trkpt lat="34.61139" lon="-5.53289">
        <ele>112.735</ele>
        <time>2011-04-19T15:57:19Z</time>
      </trkpt>
      <trkpt lat="34.60534" lon="-5.53509">
        <ele>104.046</ele>
        <time>2011-04-19T15:57:49Z</time>
      </trkpt>
      <trkpt lat="34.60325" lon="-5.53636">
        <ele>105.078</ele>
        <time>2011-04-19T15:57:59Z</time>
      </trkpt>
      <trkpt lat="34.60213" lon="-5.5383">
        <ele>111.875</ele>
        <time>2011-04-19T15:58:08Z</time>
      </trkpt>
      <trkpt lat="34.60164" lon="-5.55243">
        <ele>119.414</ele>
        <time>2011-04-19T15:59:13Z</time>
      </trkpt>
      <trkpt lat="34.59982" lon="-5.55393">
        <ele>127.928</ele>
        <time>2011-04-19T15:59:28Z</time>
      </trkpt>
      <trkpt lat="34.59768" lon="-5.55359">
        <ele>133.943</ele>
        <time>2011-04-19T15:59:43Z</time>
      </trkpt>
      <trkpt lat="34.59694" lon="-5.55276">
        <ele>137.111</ele>
        <time>2011-04-19T15:59:51Z</time>
      </trkpt>
      <trkpt lat="34.59533" lon="-5.54427">
        <ele>106.094</ele>
        <time>2011-04-19T16:00:46Z</time>
      </trkpt>
      <trkpt lat="34.59437" lon="-5.54281">
        <ele>96.157</ele>
        <time>2011-04-19T16:00:55Z</time>
      </trkpt>
      <trkpt lat="34.58992" lon="-5.53932">
        <ele>74.971</ele>
        <time>2011-04-19T16:01:23Z</time>
      </trkpt>
      <trkpt lat="34.58449" lon="-5.53789">
        <ele>71.224</ele>
        <time>2011-04-19T16:01:56Z</time>
      </trkpt>
      <trkpt lat="34.57917" lon="-5.5329">
        <ele>92.649</ele>
        <time>2011-04-19T16:02:37Z</time>
      </trkpt>
      <trkpt lat="34.5678" lon="-5.52765">
        <ele>125.235</ele>
        <time>2011-04-19T16:03:28Z</time>
      </trkpt>
      <trkpt lat="34.55374" lon="-5.5251">
        <ele>109.109</ele>
        <time>2011-04-19T16:04:36Z</time>
      </trkpt>
      <trkpt lat="34.54223" lon="-5.52081">
        <ele>97.56</ele>
        <time>2011-04-19T16:05:30Z</time>
      </trkpt>
      <trkpt lat="34.54021" lon="-5.51945">
        <ele>97.266</ele>
        <time>2011-04-19T16:05:41Z</time>
      </trkpt>
      <trkpt lat="34.53686" lon="-5.51551">
        <ele>96.666</ele>
        <time>2011-04-19T16:06:05Z</time>
      </trkpt>
      <trkpt lat="34.53619" lon="-5.51445">
        <ele>95.678</ele>
        <time>2011-04-19T16:06:10Z</time>
      </trkpt>
      <trkpt lat="34.53487" lon="-5.51222">
        <ele>88.079</ele>
        <time>2011-04-19T16:06:21Z</time>
      </trkpt>
      <trkpt lat="34.5238" lon="-5.50528">
        <ele>132.959</ele>
        <time>2011-04-19T16:07:15Z</time>
      </trkpt>
      <trkpt lat="34.52232" lon="-5.50517">
        <ele>137.854</ele>
        <time>2011-04-19T16:07:21Z</time>
      </trkpt>
      <trkpt lat="34.51736" lon="-5.50577">
        <ele>138.556</ele>
        <time>2011-04-19T16:07:41Z</time>
      </trkpt>
      <trkpt lat="34.51714" lon="-5.50585">
        <ele>138.55</ele>
        <time>2011-04-19T16:07:42Z</time>
      </trkpt>
      <trkpt lat="34.51422" lon="-5.50651">
        <ele>134.713</ele>
        <time>2011-04-19T16:07:56Z</time>
      </trkpt>
      <trkpt lat="34.50762" lon="-5.50627">
        <ele>109.853</ele>
        <time>2011-04-19T16:08:31Z</time>
      </trkpt>
      <trkpt lat="34.50345" lon="-5.50723">
        <ele>104.337</ele>
        <time>2011-04-19T16:08:58Z</time>
      </trkpt>
      <trkpt lat="34.50057" lon="-5.51021">
        <ele>92.779</ele>
        <time>2011-04-19T16:09:19Z</time>
      </trkpt>
      <trkpt lat="34.49143" lon="-5.51325">
        <ele>64.898</ele>
        <time>2011-04-19T16:10:34Z</time>
      </trkpt>
      <trkpt lat="34.48737" lon="-5.51674">
        <ele>66.841</ele>
        <time>2011-04-19T16:11:32Z</time>
      </trkpt>
      <trkpt lat="34.48451" lon="-5.5186">
        <ele>48.462</ele>
        <time>2011-04-19T16:51:00Z</time>
      </trkpt>
      <trkpt lat="34.48305" lon="-5.51874">
        <ele>33.447</ele>
        <time>2011-04-19T16:51:49Z</time>
      </trkpt>
      <trkpt lat="34.46823" lon="-5.50923">
        <ele>37.544</ele>
        <time>2011-04-19T16:53:37Z</time>
      </trkpt>
      <trkpt lat="34.46565" lon="-5.5081">
        <ele>43.252</ele>
        <time>2011-04-19T16:53:52Z</time>
      </trkpt>
      <trkpt lat="34.42618" lon="-5.50383">
        <ele>77.739</ele>
        <time>2011-04-19T16:57:32Z</time>
      </trkpt>
      <trkpt lat="34.41451" lon="-5.50473">
        <ele>105.641</ele>
        <time>2011-04-19T16:58:29Z</time>
      </trkpt>
      <trkpt lat="34.41175" lon="-5.50469">
        <ele>107.849</ele>
        <time>2011-04-19T16:58:43Z</time>
      </trkpt>
      <trkpt lat="34.4073" lon="-5.50356">
        <ele>104.344</ele>
        <time>2011-04-19T16:59:05Z</time>
      </trkpt>
      <trkpt lat="34.40344" lon="-5.50387">
        <ele>99.858</ele>
        <time>2011-04-19T16:59:25Z</time>
      </trkpt>
      <trkpt lat="34.40196" lon="-5.50379">
        <ele>96.006</ele>
        <time>2011-04-19T16:59:32Z</time>
      </trkpt>
      <trkpt lat="34.39599" lon="-5.50121">
        <ele>89.827</ele>
        <time>2011-04-19T17:00:00Z</time>
      </trkpt>
      <trkpt lat="34.39281" lon="-5.49862">
        <ele>78.482</ele>
        <time>2011-04-19T17:00:16Z</time>
      </trkpt>
      <trkpt lat="34.38919" lon="-5.49737">
        <ele>62.424</ele>
        <time>2011-04-19T17:00:32Z</time>
      </trkpt>
      <trkpt lat="34.36974" lon="-5.49788">
        <ele>54.141</ele>
        <time>2011-04-19T17:01:56Z</time>
      </trkpt>
      <trkpt lat="34.34932" lon="-5.48925">
        <ele>56.405</ele>
        <time>2011-04-19T17:03:41Z</time>
      </trkpt>
      <trkpt lat="34.34304" lon="-5.48719">
        <ele>61.273</ele>
        <time>2011-04-19T17:04:11Z</time>
      </trkpt>
      <trkpt lat="34.34093" lon="-5.48653">
        <ele>59.607</ele>
        <time>2011-04-19T17:04:22Z</time>
      </trkpt>
      <trkpt lat="34.33183" lon="-5.49092">
        <ele>74.888</ele>
        <time>2011-04-19T17:05:12Z</time>
      </trkpt>
      <trkpt lat="34.32723" lon="-5.49224">
        <ele>58.248</ele>
        <time>2011-04-19T17:05:40Z</time>
      </trkpt>
      <trkpt lat="34.32599" lon="-5.49189">
        <ele>55.537</ele>
        <time>2011-04-19T17:05:47Z</time>
      </trkpt>
      <trkpt lat="34.32398" lon="-5.48956">
        <ele>55.078</ele>
        <time>2011-04-19T17:06:05Z</time>
      </trkpt>
      <trkpt lat="34.31706" lon="-5.47916">
        <ele>44.936</ele>
        <time>2011-04-19T17:07:11Z</time>
      </trkpt>
      <trkpt lat="34.31481" lon="-5.47724">
        <ele>60.953</ele>
        <time>2011-04-19T17:07:26Z</time>
      </trkpt>
      <trkpt lat="34.30138" lon="-5.46726">
        <ele>84.083</ele>
        <time>2011-04-19T17:08:43Z</time>
      </trkpt>
      <trkpt lat="34.29817" lon="-5.46516">
        <ele>84.424</ele>
        <time>2011-04-19T17:08:59Z</time>
      </trkpt>
      <trkpt lat="34.29424" lon="-5.46373">
        <ele>72.721</ele>
        <time>2011-04-19T17:09:16Z</time>
      </trkpt>
      <trkpt lat="34.27439" lon="-5.46082">
        <ele>93.416</ele>
        <time>2011-04-19T17:10:44Z</time>
      </trkpt>
      <trkpt lat="34.27148" lon="-5.46048">
        <ele>84.127</ele>
        <time>2011-04-19T17:11:00Z</time>
      </trkpt>
      <trkpt lat="34.268" lon="-5.46089">
        <ele>81.267</ele>
        <time>2011-04-19T17:11:17Z</time>
      </trkpt>
      <trkpt lat="34.26421" lon="-5.46162">
        <ele>63.418</ele>
        <time>2011-04-19T17:11:34Z</time>
      </trkpt>
      <trkpt lat="34.23807" lon="-5.46849">
        <ele>82.505</ele>
        <time>2011-04-19T17:13:25Z</time>
      </trkpt>
      <trkpt lat="34.20685" lon="-5.48566">
        <ele>102.835</ele>
        <time>2011-04-19T17:15:59Z</time>
      </trkpt>
      <trkpt lat="34.20059" lon="-5.48828">
        <ele>107.184</ele>
        <time>2011-04-19T17:16:26Z</time>
      </trkpt>
      <trkpt lat="34.1981" lon="-5.48847">
        <ele>107.517</ele>
        <time>2011-04-19T17:16:36Z</time>
      </trkpt>
      <trkpt lat="34.19418" lon="-5.48751">
        <ele>115.893</ele>
        <time>2011-04-19T17:16:52Z</time>
      </trkpt>
      <trkpt lat="34.19097" lon="-5.48581">
        <ele>126.361</ele>
        <time>2011-04-19T17:17:06Z</time>
      </trkpt>
      <trkpt lat="34.17736" lon="-5.47814">
        <ele>144.793</ele>
        <time>2011-04-19T17:18:05Z</time>
      </trkpt>
      <trkpt lat="34.15671" lon="-5.46823">
        <ele>219.506</ele>
        <time>2011-04-19T17:19:59Z</time>
      </trkpt>
      <trkpt lat="34.15443" lon="-5.46713">
        <ele>225.446</ele>
        <time>2011-04-19T17:20:08Z</time>
      </trkpt>
      <trkpt lat="34.14913" lon="-5.46476">
        <ele>227.02</ele>
        <time>2011-04-19T17:20:38Z</time>
      </trkpt>
      <trkpt lat="34.14835" lon="-5.46643">
        <ele>229.498</ele>
        <time>2011-04-19T17:20:47Z</time>
      </trkpt>
      <trkpt lat="34.15007" lon="-5.46964">
        <ele>223.681</ele>
        <time>2011-04-19T17:21:08Z</time>
      </trkpt>
      <trkpt lat="34.15107" lon="-5.47272">
        <ele>207.484</ele>
        <time>2011-04-19T17:21:21Z</time>
      </trkpt>
      <trkpt lat="34.15125" lon="-5.47644">
        <ele>192.62</ele>
        <time>2011-04-19T17:21:36Z</time>
      </trkpt>
      <trkpt lat="34.14959" lon="-5.48444">
        <ele>170.669</ele>
        <time>2011-04-19T17:22:07Z</time>
      </trkpt>
      <trkpt lat="34.15152" lon="-5.4928">
        <ele>166.979</ele>
        <time>2011-04-19T17:22:44Z</time>
      </trkpt>
      <trkpt lat="34.14945" lon="-5.4999">
        <ele>189.153</ele>
        <time>2011-04-19T17:23:14Z</time>
      </trkpt>
      <trkpt lat="34.14768" lon="-5.50818">
        <ele>184.51</ele>
        <time>2011-04-19T17:23:49Z</time>
      </trkpt>
      <trkpt lat="34.14625" lon="-5.51108">
        <ele>195.493</ele>
        <time>2011-04-19T17:24:06Z</time>
      </trkpt>
      <trkpt lat="34.14754" lon="-5.51321">
        <ele>204.29</ele>
        <time>2011-04-19T17:24:27Z</time>
      </trkpt>
      <trkpt lat="34.14855" lon="-5.51762">
        <ele>233.037</ele>
        <time>2011-04-19T17:25:03Z</time>
      </trkpt>
      <trkpt lat="34.14869" lon="-5.51884">
        <ele>236.5</ele>
        <time>2011-04-19T17:25:08Z</time>
      </trkpt>
      <trkpt lat="34.14819" lon="-5.5199">
        <ele>240.358</ele>
        <time>2011-04-19T17:25:15Z</time>
      </trkpt>
      <trkpt lat="34.14758" lon="-5.52019">
        <ele>243.736</ele>
        <time>2011-04-19T17:25:20Z</time>
      </trkpt>
      <trkpt lat="34.14568" lon="-5.51924">
        <ele>255.778</ele>
        <time>2011-04-19T17:25:35Z</time>
      </trkpt>
      <trkpt lat="34.14523" lon="-5.51939">
        <ele>258.014</ele>
        <time>2011-04-19T17:25:38Z</time>
      </trkpt>
      <trkpt lat="34.14467" lon="-5.52081">
        <ele>265.512</ele>
        <time>2011-04-19T17:25:47Z</time>
      </trkpt>
      <trkpt lat="34.14465" lon="-5.52095">
        <ele>265.516</ele>
        <time>2011-04-19T17:25:48Z</time>
      </trkpt>
      <trkpt lat="34.14583" lon="-5.52288">
        <ele>282.42</ele>
        <time>2011-04-19T17:25:59Z</time>
      </trkpt>
      <trkpt lat="34.1488" lon="-5.52454">
        <ele>301.149</ele>
        <time>2011-04-19T17:26:15Z</time>
      </trkpt>
      <trkpt lat="34.15403" lon="-5.52704">
        <ele>324.08</ele>
        <time>2011-04-19T17:26:43Z</time>
      </trkpt>
      <trkpt lat="34.16321" lon="-5.5276">
        <ele>378.33</ele>
        <time>2011-04-19T17:27:56Z</time>
      </trkpt>
      <trkpt lat="34.16429" lon="-5.53007">
        <ele>390.165</ele>
        <time>2011-04-19T17:28:13Z</time>
      </trkpt>
      <trkpt lat="34.16749" lon="-5.53127">
        <ele>389.497</ele>
        <time>2011-04-19T17:28:41Z</time>
      </trkpt>
      <trkpt lat="34.16253" lon="-5.53221">
        <ele>415.365</ele>
        <time>2011-04-19T17:29:19Z</time>
      </trkpt>
      <trkpt lat="34.1612" lon="-5.53261">
        <ele>421.245</ele>
        <time>2011-04-19T17:29:29Z</time>
      </trkpt>
      <trkpt lat="34.15873" lon="-5.53342">
        <ele>427.107</ele>
        <time>2011-04-19T17:29:43Z</time>
      </trkpt>
      <trkpt lat="34.15581" lon="-5.53487">
        <ele>426.812</ele>
        <time>2011-04-19T17:29:58Z</time>
      </trkpt>
      <trkpt lat="34.15104" lon="-5.53856">
        <ele>435.723</ele>
        <time>2011-04-19T17:30:26Z</time>
      </trkpt>
      <trkpt lat="34.14412" lon="-5.5438">
        <ele>431.56</ele>
        <time>2011-04-19T17:31:07Z</time>
      </trkpt>
      <trkpt lat="34.1398" lon="-5.5481">
        <ele>428.878</ele>
        <time>2011-04-19T17:31:37Z</time>
      </trkpt>
      <trkpt lat="34.13006" lon="-5.55017">
        <ele>453.999</ele>
        <time>2011-04-19T17:32:37Z</time>
      </trkpt>
      <trkpt lat="34.12386" lon="-5.55069">
        <ele>428.643</ele>
        <time>2011-04-19T17:33:12Z</time>
      </trkpt>
      <trkpt lat="34.12256" lon="-5.5506">
        <ele>423.351</ele>
        <time>2011-04-19T17:33:19Z</time>
      </trkpt>
      <trkpt lat="34.12062" lon="-5.54899">
        <ele>406.233</ele>
        <time>2011-04-19T17:33:38Z</time>
      </trkpt>
      <trkpt lat="34.11844" lon="-5.55021">
        <ele>414.077</ele>
        <time>2011-04-19T17:33:53Z</time>
      </trkpt>
      <trkpt lat="34.11696" lon="-5.54991">
        <ele>413.656</ele>
        <time>2011-04-19T17:34:02Z</time>
      </trkpt>
      <trkpt lat="34.11414" lon="-5.54909">
        <ele>407.018</ele>
        <time>2011-04-19T17:34:24Z</time>
      </trkpt>
      <trkpt lat="34.11041" lon="-5.54666">
        <ele>395.111</ele>
        <time>2011-04-19T17:34:57Z</time>
      </trkpt>
      <trkpt lat="34.10803" lon="-5.54738">
        <ele>399.323</ele>
        <time>2011-04-19T17:35:17Z</time>
      </trkpt>
      <trkpt lat="34.09934" lon="-5.54759">
        <ele>407.015</ele>
        <time>2011-04-19T17:36:15Z</time>
      </trkpt>
      <trkpt lat="34.08516" lon="-5.54824">
        <ele>407.502</ele>
        <time>2011-04-19T17:37:24Z</time>
      </trkpt>
      <trkpt lat="34.08261" lon="-5.54662">
        <ele>407.484</ele>
        <time>2011-04-19T17:37:44Z</time>
      </trkpt>
      <trkpt lat="34.0801" lon="-5.54651">
        <ele>419.301</ele>
        <time>2011-04-19T17:37:59Z</time>
      </trkpt>
      <trkpt lat="34.07827" lon="-5.54601">
        <ele>423.352</ele>
        <time>2011-04-19T17:38:10Z</time>
      </trkpt>
      <trkpt lat="34.0766" lon="-5.54534">
        <ele>420.854</ele>
        <time>2011-04-19T17:38:20Z</time>
      </trkpt>
      <trkpt lat="34.07117" lon="-5.54236">
        <ele>421.88</ele>
        <time>2011-04-19T17:38:58Z</time>
      </trkpt>
      <trkpt lat="34.06992" lon="-5.54043">
        <ele>428.556</ele>
        <time>2011-04-19T17:39:11Z</time>
      </trkpt>
      <trkpt lat="34.06961" lon="-5.53999">
        <ele>428.459</ele>
        <time>2011-04-19T17:39:17Z</time>
      </trkpt>
      <trkpt lat="34.06841" lon="-5.53995">
        <ele>431.414</ele>
        <time>2011-04-19T17:39:25Z</time>
      </trkpt>
      <trkpt lat="34.06591" lon="-5.53907">
        <ele>414.124</ele>
        <time>2011-04-19T17:39:43Z</time>
      </trkpt>
      <trkpt lat="34.06212" lon="-5.53526">
        <ele>407.88</ele>
        <time>2011-04-19T17:40:12Z</time>
      </trkpt>
      <trkpt lat="34.06028" lon="-5.5342">
        <ele>415.375</ele>
        <time>2011-04-19T17:40:27Z</time>
      </trkpt>
      <trkpt lat="34.05832" lon="-5.53256">
        <ele>412.549</ele>
        <time>2011-04-19T17:40:45Z</time>
      </trkpt>
      <trkpt lat="34.05758" lon="-5.53238">
        <ele>410.891</ele>
        <time>2011-04-19T17:40:50Z</time>
      </trkpt>
      <trkpt lat="34.05348" lon="-5.53259">
        <ele>393.601</ele>
        <time>2011-04-19T17:41:13Z</time>
      </trkpt>
      <trkpt lat="34.05288" lon="-5.53299">
        <ele>396.572</ele>
        <time>2011-04-19T17:41:19Z</time>
      </trkpt>
      <trkpt lat="34.05261" lon="-5.53403">
        <ele>408.113</ele>
        <time>2011-04-19T17:41:24Z</time>
      </trkpt>
      <trkpt lat="34.0525" lon="-5.53814">
        <ele>433.531</ele>
        <time>2011-04-19T17:41:44Z</time>
      </trkpt>
      <trkpt lat="34.05116" lon="-5.54071">
        <ele>431.545</ele>
        <time>2011-04-19T17:41:57Z</time>
      </trkpt>
      <trkpt lat="34.05202" lon="-5.54552">
        <ele>421.135</ele>
        <time>2011-04-19T17:42:21Z</time>
      </trkpt>
      <trkpt lat="34.0501" lon="-5.54814">
        <ele>436.596</ele>
        <time>2011-04-19T17:42:37Z</time>
      </trkpt>
      <trkpt lat="34.04898" lon="-5.55048">
        <ele>438.955</ele>
        <time>2011-04-19T17:42:47Z</time>
      </trkpt>
      <trkpt lat="34.04676" lon="-5.56072">
        <ele>462.722</ele>
        <time>2011-04-19T17:43:23Z</time>
      </trkpt>
      <trkpt lat="34.04495" lon="-5.56599">
        <ele>468.112</ele>
        <time>2011-04-19T17:43:44Z</time>
      </trkpt>
      <trkpt lat="34.04228" lon="-5.56886">
        <ele>481.419</ele>
        <time>2011-04-19T17:44:01Z</time>
      </trkpt>
      <trkpt lat="34.03946" lon="-5.56859">
        <ele>497.415</ele>
        <time>2011-04-19T17:44:16Z</time>
      </trkpt>
      <trkpt lat="34.03787" lon="-5.56949">
        <ele>504.979</ele>
        <time>2011-04-19T17:44:27Z</time>
      </trkpt>
      <trkpt lat="34.03281" lon="-5.57114">
        <ele>521.948</ele>
        <time>2011-04-19T17:44:59Z</time>
      </trkpt>
      <trkpt lat="34.02991" lon="-5.57174">
        <ele>512.109</ele>
        <time>2011-04-19T17:45:17Z</time>
      </trkpt>
      <trkpt lat="34.02845" lon="-5.57362">
        <ele>506.256</ele>
        <time>2011-04-19T17:45:32Z</time>
      </trkpt>
      <trkpt lat="34.02409" lon="-5.57553">
        <ele>496.175</ele>
        <time>2011-04-19T17:45:57Z</time>
      </trkpt>
      <trkpt lat="34.02258" lon="-5.57645">
        <ele>488.924</ele>
        <time>2011-04-19T17:46:06Z</time>
      </trkpt>
      <trkpt lat="34.02147" lon="-5.57658">
        <ele>484.332</ele>
        <time>2011-04-19T17:46:14Z</time>
      </trkpt>
      <trkpt lat="34.02022" lon="-5.5757">
        <ele>478.999</ele>
        <time>2011-04-19T17:46:24Z</time>
      </trkpt>
      <trkpt lat="34.02002" lon="-5.57545">
        <ele>477.221</ele>
        <time>2011-04-19T17:46:26Z</time>
      </trkpt>
      <trkpt lat="34.01821" lon="-5.57081">
        <ele>455.036</ele>
        <time>2011-04-19T17:46:58Z</time>
      </trkpt>
      <trkpt lat="34.01748" lon="-5.56676">
        <ele>442.99</ele>
        <time>2011-04-19T17:47:24Z</time>
      </trkpt>
      <trkpt lat="34.01731" lon="-5.5664">
        <ele>440.976</ele>
        <time>2011-04-19T17:47:27Z</time>
      </trkpt>
      <trkpt lat="34.01551" lon="-5.56463">
        <ele>431.602</ele>
        <time>2011-04-19T17:47:42Z</time>
      </trkpt>
      <trkpt lat="34.01364" lon="-5.56391">
        <ele>426.355</ele>
        <time>2011-04-19T17:47:55Z</time>
      </trkpt>
      <trkpt lat="34.01276" lon="-5.56314">
        <ele>422.037</ele>
        <time>2011-04-19T17:48:02Z</time>
      </trkpt>
      <trkpt lat="34.01167" lon="-5.56091">
        <ele>422.424</ele>
        <time>2011-04-19T17:48:15Z</time>
      </trkpt>
      <trkpt lat="34.01037" lon="-5.55922">
        <ele>411.156</ele>
        <time>2011-04-19T17:48:27Z</time>
      </trkpt>
      <trkpt lat="34.00925" lon="-5.55908">
        <ele>406.113</ele>
        <time>2011-04-19T17:48:34Z</time>
      </trkpt>
      <trkpt lat="34.00769" lon="-5.55869">
        <ele>396.653</ele>
        <time>2011-04-19T17:48:45Z</time>
      </trkpt>
      <trkpt lat="34.00741" lon="-5.55847">
        <ele>392.593</ele>
        <time>2011-04-19T17:48:48Z</time>
      </trkpt>
      <trkpt lat="34.00685" lon="-5.55678">
        <ele>389.115</ele>
        <time>2011-04-19T17:48:58Z</time>
      </trkpt>
      <trkpt lat="34.00664" lon="-5.55651">
        <ele>387.39</ele>
        <time>2011-04-19T17:49:00Z</time>
      </trkpt>
      <trkpt lat="34.00515" lon="-5.55607">
        <ele>379.094</ele>
        <time>2011-04-19T17:49:09Z</time>
      </trkpt>
      <trkpt lat="34.00248" lon="-5.5564">
        <ele>374.162</ele>
        <time>2011-04-19T17:49:25Z</time>
      </trkpt>
      <trkpt lat="33.99448" lon="-5.56069">
        <ele>353.997</ele>
        <time>2011-04-19T17:50:04Z</time>
      </trkpt>
      <trkpt lat="33.99223" lon="-5.56247">
        <ele>338.771</ele>
        <time>2011-04-19T17:50:16Z</time>
      </trkpt>
      <trkpt lat="33.98757" lon="-5.56225">
        <ele>311.938</ele>
        <time>2011-04-19T17:50:39Z</time>
      </trkpt>
      <trkpt lat="33.98528" lon="-5.56289">
        <ele>305.892</ele>
        <time>2011-04-19T17:50:50Z</time>
      </trkpt>
      <trkpt lat="33.9839" lon="-5.56323">
        <ele>296.134</ele>
        <time>2011-04-19T17:50:57Z</time>
      </trkpt>
      <trkpt lat="33.98191" lon="-5.56285">
        <ele>281.62</ele>
        <time>2011-04-19T17:51:09Z</time>
      </trkpt>
      <trkpt lat="33.97952" lon="-5.56724">
        <ele>279.26</ele>
        <time>2011-04-19T17:51:37Z</time>
      </trkpt>
      <trkpt lat="33.97708" lon="-5.57424">
        <ele>302.426</ele>
        <time>2011-04-19T17:52:05Z</time>
      </trkpt>
      <trkpt lat="33.97656" lon="-5.5769">
        <ele>302.728</ele>
        <time>2011-04-19T17:52:18Z</time>
      </trkpt>
      <trkpt lat="33.97592" lon="-5.57745">
        <ele>303.535</ele>
        <time>2011-04-19T17:52:25Z</time>
      </trkpt>
      <trkpt lat="33.97384" lon="-5.57734">
        <ele>291.308</ele>
        <time>2011-04-19T17:52:51Z</time>
      </trkpt>
      <trkpt lat="33.96895" lon="-5.57511">
        <ele>318.999</ele>
        <time>2011-04-19T17:53:36Z</time>
      </trkpt>
      <trkpt lat="33.96704" lon="-5.57412">
        <ele>319.175</ele>
        <time>2011-04-19T17:53:50Z</time>
      </trkpt>
      <trkpt lat="33.9659" lon="-5.57419">
        <ele>314.836</ele>
        <time>2011-04-19T17:53:58Z</time>
      </trkpt>
      <trkpt lat="33.96195" lon="-5.57663">
        <ele>287.152</ele>
        <time>2011-04-19T17:54:28Z</time>
      </trkpt>
      <trkpt lat="33.95351" lon="-5.57418">
        <ele>284.786</ele>
        <time>2011-04-19T17:55:23Z</time>
      </trkpt>
      <trkpt lat="33.9495" lon="-5.57371">
        <ele>313.648</ele>
        <time>2011-04-19T17:55:44Z</time>
      </trkpt>
      <trkpt lat="33.94923" lon="-5.5737">
        <ele>313.648</ele>
        <time>2011-04-19T17:55:45Z</time>
      </trkpt>
      <trkpt lat="33.94877" lon="-5.57368">
        <ele>312.243</ele>
        <time>2011-04-19T17:55:47Z</time>
      </trkpt>
      <trkpt lat="33.94681" lon="-5.57254">
        <ele>315.118</ele>
        <time>2011-04-19T17:55:58Z</time>
      </trkpt>
      <trkpt lat="33.94464" lon="-5.5685">
        <ele>312.65</ele>
        <time>2011-04-19T17:56:20Z</time>
      </trkpt>
      <trkpt lat="33.941" lon="-5.56552">
        <ele>315.163</ele>
        <time>2011-04-19T17:56:45Z</time>
      </trkpt>
      <trkpt lat="33.93035" lon="-5.56329">
        <ele>359.711</ele>
        <time>2011-04-19T17:57:46Z</time>
      </trkpt>
      <trkpt lat="33.92375" lon="-5.56069">
        <ele>369.968</ele>
        <time>2011-04-19T17:58:38Z</time>
      </trkpt>
      <trkpt lat="33.91924" lon="-5.56128">
        <ele>382.96</ele>
        <time>2011-04-19T17:59:31Z</time>
      </trkpt>
      <trkpt lat="33.90979" lon="-5.55679">
        <ele>449.136</ele>
        <time>2011-04-19T18:01:01Z</time>
      </trkpt>
      <trkpt lat="33.90618" lon="-5.5565">
        <ele>465.54</ele>
        <time>2011-04-19T18:01:35Z</time>
      </trkpt>
      <trkpt lat="33.89994" lon="-5.55399">
        <ele>497.872</ele>
        <time>2011-04-19T18:03:11Z</time>
      </trkpt>
      <trkpt lat="33.89825" lon="-5.55321">
        <ele>505.666</ele>
        <time>2011-04-19T18:04:20Z</time>
      </trkpt>
      <trkpt lat="33.89516" lon="-5.55102">
        <ele>512.241</ele>
        <time>2011-04-19T18:05:01Z</time>
      </trkpt>
      <trkpt lat="33.89446" lon="-5.54975">
        <ele>503.225</ele>
        <time>2011-04-19T18:05:30Z</time>
      </trkpt>
      <trkpt lat="33.89616" lon="-5.54564">
        <ele>519.549</ele>
        <time>2011-04-19T18:06:18Z</time>
      </trkpt>
      <trkpt lat="33.89675" lon="-5.54218">
        <ele>521.807</ele>
        <time>2011-04-19T18:07:50Z</time>
      </trkpt>
      <trkpt lat="33.897" lon="-5.54304">
        <ele>534.074</ele>
        <time>2011-04-19T19:31:59Z</time>
      </trkpt>
    </trkseg>
  </trk>
</gpx>